<?xml version="1.0" encoding="UTF-8"?>
<gpx version="1.1" creator="https://www.youtrack.es" xsi:schemaLocation="http://www.topografix.com/GPX/1/1 http://www.topografix.com/GPX/1/1/gpx.xsd http://www.garmin.com/xmlschemas/GpxExtensions/v3 http://www.garmin.com/xmlschemas/GpxExtensionsv3.xsd http://www.garmin.com/xmlschemas/TrackPointExtension/v1 http://www.garmin.com/xmlschemas/TrackPointExtensionv1.xsd" xmlns:gpxtpx="http://www.garmin.com/xmlschemas/TrackPointExtension/v1" xmlns:gpxx="http://www.garmin.com/xmlschemas/GpxExtensions/v3" xmlns:xsi="http://www.w3.org/2001/XMLSchema-instance">
  <metadata>
    <link href="https://www.youtrack.es">
      <text>YouTrack.es</text>
    </link>
    <time>2026-05-08T20:37:52Z</time>
  </metadata>
  <trk>
    <src>https://www.youtrack.es</src>
    <link href="https://www.youtrack.es/ruta/39565-la-indomable-maraton-mtb-2022">
      <text>YouTrack.es</text>
    </link>
    <trkseg>
      <trkpt lat="36.840001" lon="-2.943116">
        <ele>316.621</ele>
        <time>2023-01-11T21:29:46Z</time>
      </trkpt>
      <trkpt lat="36.842145" lon="-2.945921">
        <ele>318.041</ele>
        <time>2023-01-11T21:30:06Z</time>
      </trkpt>
      <trkpt lat="36.846325" lon="-2.948747">
        <ele>335.605</ele>
        <time>2023-01-11T21:30:26Z</time>
      </trkpt>
      <trkpt lat="36.846141" lon="-2.949132">
        <ele>335.808</ele>
        <time>2023-01-11T21:30:36Z</time>
      </trkpt>
      <trkpt lat="36.849974" lon="-2.952500">
        <ele>341.061</ele>
        <time>2023-01-11T21:30:56Z</time>
      </trkpt>
      <trkpt lat="36.852139" lon="-2.952732">
        <ele>354.854</ele>
        <time>2023-01-11T21:31:36Z</time>
      </trkpt>
      <trkpt lat="36.853334" lon="-2.951733">
        <ele>362.087</ele>
        <time>2023-01-11T21:31:46Z</time>
      </trkpt>
      <trkpt lat="36.853895" lon="-2.951900">
        <ele>367.860</ele>
        <time>2023-01-11T21:31:56Z</time>
      </trkpt>
      <trkpt lat="36.855283" lon="-2.950828">
        <ele>376.834</ele>
        <time>2023-01-11T21:32:06Z</time>
      </trkpt>
      <trkpt lat="36.859922" lon="-2.945457">
        <ele>420.624</ele>
        <time>2023-01-11T21:32:26Z</time>
      </trkpt>
      <trkpt lat="36.864817" lon="-2.938716">
        <ele>470.012</ele>
        <time>2023-01-11T21:32:56Z</time>
      </trkpt>
      <trkpt lat="36.866628" lon="-2.938262">
        <ele>487.856</ele>
        <time>2023-01-11T21:33:26Z</time>
      </trkpt>
      <trkpt lat="36.869258" lon="-2.935820">
        <ele>516.415</ele>
        <time>2023-01-11T21:33:46Z</time>
      </trkpt>
      <trkpt lat="36.870782" lon="-2.935314">
        <ele>528.065</ele>
        <time>2023-01-11T21:33:56Z</time>
      </trkpt>
      <trkpt lat="36.876038" lon="-2.931947">
        <ele>582.611</ele>
        <time>2023-01-11T21:34:36Z</time>
      </trkpt>
      <trkpt lat="36.878089" lon="-2.929549">
        <ele>610.208</ele>
        <time>2023-01-11T21:34:46Z</time>
      </trkpt>
      <trkpt lat="36.879572" lon="-2.929590">
        <ele>623.840</ele>
        <time>2023-01-11T21:35:06Z</time>
      </trkpt>
      <trkpt lat="36.882936" lon="-2.927338">
        <ele>659.673</ele>
        <time>2023-01-11T21:35:36Z</time>
      </trkpt>
      <trkpt lat="36.882565" lon="-2.927109">
        <ele>660.686</ele>
        <time>2023-01-11T21:35:46Z</time>
      </trkpt>
      <trkpt lat="36.883027" lon="-2.926988">
        <ele>664.489</ele>
        <time>2023-01-11T21:35:56Z</time>
      </trkpt>
      <trkpt lat="36.882890" lon="-2.925722">
        <ele>672.283</ele>
        <time>2023-01-11T21:36:16Z</time>
      </trkpt>
      <trkpt lat="36.882308" lon="-2.925041">
        <ele>673.483</ele>
        <time>2023-01-11T21:36:26Z</time>
      </trkpt>
      <trkpt lat="36.881956" lon="-2.922734">
        <ele>677.851</ele>
        <time>2023-01-11T21:36:46Z</time>
      </trkpt>
      <trkpt lat="36.880484" lon="-2.920009">
        <ele>688.285</ele>
        <time>2023-01-11T21:37:26Z</time>
      </trkpt>
      <trkpt lat="36.882248" lon="-2.920557">
        <ele>704.826</ele>
        <time>2023-01-11T21:37:56Z</time>
      </trkpt>
      <trkpt lat="36.881457" lon="-2.919457">
        <ele>716.247</ele>
        <time>2023-01-11T21:38:16Z</time>
      </trkpt>
      <trkpt lat="36.882898" lon="-2.919749">
        <ele>730.011</ele>
        <time>2023-01-11T21:38:46Z</time>
      </trkpt>
      <trkpt lat="36.883331" lon="-2.920937">
        <ele>736.008</ele>
        <time>2023-01-11T21:38:56Z</time>
      </trkpt>
      <trkpt lat="36.885563" lon="-2.922516">
        <ele>744.051</ele>
        <time>2023-01-11T21:39:36Z</time>
      </trkpt>
      <trkpt lat="36.886717" lon="-2.922586">
        <ele>757.044</ele>
        <time>2023-01-11T21:39:56Z</time>
      </trkpt>
      <trkpt lat="36.886827" lon="-2.921738">
        <ele>761.447</ele>
        <time>2023-01-11T21:40:06Z</time>
      </trkpt>
      <trkpt lat="36.886388" lon="-2.920735">
        <ele>767.290</ele>
        <time>2023-01-11T21:40:16Z</time>
      </trkpt>
      <trkpt lat="36.886664" lon="-2.919930">
        <ele>771.824</ele>
        <time>2023-01-11T21:40:36Z</time>
      </trkpt>
      <trkpt lat="36.887436" lon="-2.920278">
        <ele>775.894</ele>
        <time>2023-01-11T21:40:46Z</time>
      </trkpt>
      <trkpt lat="36.887746" lon="-2.918621">
        <ele>778.632</ele>
        <time>2023-01-11T21:41:16Z</time>
      </trkpt>
      <trkpt lat="36.888518" lon="-2.920152">
        <ele>783.286</ele>
        <time>2023-01-11T21:41:26Z</time>
      </trkpt>
      <trkpt lat="36.888361" lon="-2.922036">
        <ele>785.674</ele>
        <time>2023-01-11T21:41:46Z</time>
      </trkpt>
      <trkpt lat="36.889429" lon="-2.923887">
        <ele>802.856</ele>
        <time>2023-01-11T21:42:26Z</time>
      </trkpt>
      <trkpt lat="36.890562" lon="-2.924099">
        <ele>817.621</ele>
        <time>2023-01-11T21:42:36Z</time>
      </trkpt>
      <trkpt lat="36.890635" lon="-2.924693">
        <ele>821.808</ele>
        <time>2023-01-11T21:42:46Z</time>
      </trkpt>
      <trkpt lat="36.891636" lon="-2.925238">
        <ele>834.016</ele>
        <time>2023-01-11T21:43:06Z</time>
      </trkpt>
      <trkpt lat="36.892464" lon="-2.924213">
        <ele>846.849</ele>
        <time>2023-01-11T21:43:26Z</time>
      </trkpt>
      <trkpt lat="36.893520" lon="-2.925253">
        <ele>858.812</ele>
        <time>2023-01-11T21:43:46Z</time>
      </trkpt>
      <trkpt lat="36.894894" lon="-2.925236">
        <ele>872.265</ele>
        <time>2023-01-11T21:44:16Z</time>
      </trkpt>
      <trkpt lat="36.894565" lon="-2.926506">
        <ele>877.089</ele>
        <time>2023-01-11T21:44:36Z</time>
      </trkpt>
      <trkpt lat="36.895420" lon="-2.926646">
        <ele>881.259</ele>
        <time>2023-01-11T21:44:56Z</time>
      </trkpt>
      <trkpt lat="36.896181" lon="-2.928396">
        <ele>884.617</ele>
        <time>2023-01-11T21:45:06Z</time>
      </trkpt>
      <trkpt lat="36.898977" lon="-2.928956">
        <ele>891.491</ele>
        <time>2023-01-11T21:45:46Z</time>
      </trkpt>
      <trkpt lat="36.899738" lon="-2.928198">
        <ele>898.689</ele>
        <time>2023-01-11T21:45:56Z</time>
      </trkpt>
      <trkpt lat="36.900593" lon="-2.928032">
        <ele>902.406</ele>
        <time>2023-01-11T21:46:16Z</time>
      </trkpt>
      <trkpt lat="36.901073" lon="-2.928573">
        <ele>905.026</ele>
        <time>2023-01-11T21:46:36Z</time>
      </trkpt>
      <trkpt lat="36.903881" lon="-2.926965">
        <ele>906.608</ele>
        <time>2023-01-11T21:47:06Z</time>
      </trkpt>
      <trkpt lat="36.903350" lon="-2.927979">
        <ele>907.437</ele>
        <time>2023-01-11T21:47:16Z</time>
      </trkpt>
      <trkpt lat="36.903289" lon="-2.929292">
        <ele>913.620</ele>
        <time>2023-01-11T21:47:26Z</time>
      </trkpt>
      <trkpt lat="36.904825" lon="-2.929104">
        <ele>919.663</ele>
        <time>2023-01-11T21:47:46Z</time>
      </trkpt>
      <trkpt lat="36.904236" lon="-2.929860">
        <ele>922.686</ele>
        <time>2023-01-11T21:47:56Z</time>
      </trkpt>
      <trkpt lat="36.904303" lon="-2.930584">
        <ele>924.870</ele>
        <time>2023-01-11T21:48:16Z</time>
      </trkpt>
      <trkpt lat="36.905944" lon="-2.931409">
        <ele>929.480</ele>
        <time>2023-01-11T21:48:36Z</time>
      </trkpt>
      <trkpt lat="36.907426" lon="-2.929944">
        <ele>946.888</ele>
        <time>2023-01-11T21:48:56Z</time>
      </trkpt>
      <trkpt lat="36.908445" lon="-2.930517">
        <ele>956.242</ele>
        <time>2023-01-11T21:49:26Z</time>
      </trkpt>
      <trkpt lat="36.909908" lon="-2.928915">
        <ele>976.858</ele>
        <time>2023-01-11T21:49:36Z</time>
      </trkpt>
      <trkpt lat="36.910154" lon="-2.930723">
        <ele>979.852</ele>
        <time>2023-01-11T21:49:56Z</time>
      </trkpt>
      <trkpt lat="36.911352" lon="-2.931909">
        <ele>980.417</ele>
        <time>2023-01-11T21:50:06Z</time>
      </trkpt>
      <trkpt lat="36.910278" lon="-2.932947">
        <ele>978.408</ele>
        <time>2023-01-11T21:50:26Z</time>
      </trkpt>
      <trkpt lat="36.910566" lon="-2.936227">
        <ele>973.414</ele>
        <time>2023-01-11T21:50:56Z</time>
      </trkpt>
      <trkpt lat="36.913307" lon="-2.938074">
        <ele>965.027</ele>
        <time>2023-01-11T21:51:36Z</time>
      </trkpt>
      <trkpt lat="36.913929" lon="-2.937901">
        <ele>962.450</ele>
        <time>2023-01-11T21:51:56Z</time>
      </trkpt>
      <trkpt lat="36.914006" lon="-2.937275">
        <ele>960.413</ele>
        <time>2023-01-11T21:52:06Z</time>
      </trkpt>
      <trkpt lat="36.914980" lon="-2.936818">
        <ele>957.837</ele>
        <time>2023-01-11T21:52:16Z</time>
      </trkpt>
      <trkpt lat="36.915425" lon="-2.938481">
        <ele>953.427</ele>
        <time>2023-01-11T21:52:46Z</time>
      </trkpt>
      <trkpt lat="36.916218" lon="-2.937644">
        <ele>950.855</ele>
        <time>2023-01-11T21:52:56Z</time>
      </trkpt>
      <trkpt lat="36.916601" lon="-2.936427">
        <ele>947.889</ele>
        <time>2023-01-11T21:53:06Z</time>
      </trkpt>
      <trkpt lat="36.917411" lon="-2.939920">
        <ele>956.439</ele>
        <time>2023-01-11T21:53:46Z</time>
      </trkpt>
      <trkpt lat="36.917904" lon="-2.939587">
        <ele>958.601</ele>
        <time>2023-01-11T21:53:56Z</time>
      </trkpt>
      <trkpt lat="36.918540" lon="-2.940061">
        <ele>960.621</ele>
        <time>2023-01-11T21:54:16Z</time>
      </trkpt>
      <trkpt lat="36.920985" lon="-2.939739">
        <ele>967.008</ele>
        <time>2023-01-11T21:54:46Z</time>
      </trkpt>
      <trkpt lat="36.921597" lon="-2.938621">
        <ele>970.462</ele>
        <time>2023-01-11T21:55:06Z</time>
      </trkpt>
      <trkpt lat="36.921972" lon="-2.935535">
        <ele>977.065</ele>
        <time>2023-01-11T21:55:26Z</time>
      </trkpt>
      <trkpt lat="36.922889" lon="-2.932742">
        <ele>985.418</ele>
        <time>2023-01-11T21:55:46Z</time>
      </trkpt>
      <trkpt lat="36.923258" lon="-2.933703">
        <ele>988.041</ele>
        <time>2023-01-11T21:55:56Z</time>
      </trkpt>
      <trkpt lat="36.924548" lon="-2.934802">
        <ele>1001.285</ele>
        <time>2023-01-11T21:56:26Z</time>
      </trkpt>
      <trkpt lat="36.924904" lon="-2.934662">
        <ele>1004.685</ele>
        <time>2023-01-11T21:56:36Z</time>
      </trkpt>
      <trkpt lat="36.926274" lon="-2.937869">
        <ele>1027.473</ele>
        <time>2023-01-11T21:57:26Z</time>
      </trkpt>
      <trkpt lat="36.926051" lon="-2.939144">
        <ele>1036.087</ele>
        <time>2023-01-11T21:57:46Z</time>
      </trkpt>
      <trkpt lat="36.929341" lon="-2.936131">
        <ele>1077.662</ele>
        <time>2023-01-11T21:58:46Z</time>
      </trkpt>
      <trkpt lat="36.929408" lon="-2.936604">
        <ele>1078.683</ele>
        <time>2023-01-11T21:58:56Z</time>
      </trkpt>
      <trkpt lat="36.931280" lon="-2.936719">
        <ele>1087.211</ele>
        <time>2023-01-11T21:59:26Z</time>
      </trkpt>
      <trkpt lat="36.932237" lon="-2.936035">
        <ele>1090.208</ele>
        <time>2023-01-11T21:59:46Z</time>
      </trkpt>
      <trkpt lat="36.933056" lon="-2.934333">
        <ele>1094.225</ele>
        <time>2023-01-11T21:59:56Z</time>
      </trkpt>
      <trkpt lat="36.933543" lon="-2.936244">
        <ele>1099.078</ele>
        <time>2023-01-11T22:00:26Z</time>
      </trkpt>
      <trkpt lat="36.935109" lon="-2.937589">
        <ele>1095.251</ele>
        <time>2023-01-11T22:00:46Z</time>
      </trkpt>
      <trkpt lat="36.935278" lon="-2.937125">
        <ele>1094.064</ele>
        <time>2023-01-11T22:01:06Z</time>
      </trkpt>
      <trkpt lat="36.937102" lon="-2.937295">
        <ele>1099.648</ele>
        <time>2023-01-11T22:01:36Z</time>
      </trkpt>
      <trkpt lat="36.938233" lon="-2.934779">
        <ele>1106.638</ele>
        <time>2023-01-11T22:02:16Z</time>
      </trkpt>
      <trkpt lat="36.937598" lon="-2.934726">
        <ele>1110.846</ele>
        <time>2023-01-11T22:02:26Z</time>
      </trkpt>
      <trkpt lat="36.936098" lon="-2.932923">
        <ele>1126.410</ele>
        <time>2023-01-11T22:02:46Z</time>
      </trkpt>
      <trkpt lat="36.937333" lon="-2.931641">
        <ele>1139.053</ele>
        <time>2023-01-11T22:02:56Z</time>
      </trkpt>
      <trkpt lat="36.936498" lon="-2.932057">
        <ele>1145.804</ele>
        <time>2023-01-11T22:03:06Z</time>
      </trkpt>
      <trkpt lat="36.935077" lon="-2.931030">
        <ele>1155.814</ele>
        <time>2023-01-11T22:03:26Z</time>
      </trkpt>
      <trkpt lat="36.936667" lon="-2.931047">
        <ele>1163.808</ele>
        <time>2023-01-11T22:03:46Z</time>
      </trkpt>
      <trkpt lat="36.937091" lon="-2.930420">
        <ele>1168.294</ele>
        <time>2023-01-11T22:04:06Z</time>
      </trkpt>
      <trkpt lat="36.935524" lon="-2.929893">
        <ele>1179.417</ele>
        <time>2023-01-11T22:04:36Z</time>
      </trkpt>
      <trkpt lat="36.936333" lon="-2.930007">
        <ele>1185.260</ele>
        <time>2023-01-11T22:04:56Z</time>
      </trkpt>
      <trkpt lat="36.936854" lon="-2.929465">
        <ele>1188.243</ele>
        <time>2023-01-11T22:05:06Z</time>
      </trkpt>
      <trkpt lat="36.936116" lon="-2.929539">
        <ele>1193.827</ele>
        <time>2023-01-11T22:05:16Z</time>
      </trkpt>
      <trkpt lat="36.936444" lon="-2.928947">
        <ele>1200.437</ele>
        <time>2023-01-11T22:05:26Z</time>
      </trkpt>
      <trkpt lat="36.936067" lon="-2.929058">
        <ele>1204.845</ele>
        <time>2023-01-11T22:05:36Z</time>
      </trkpt>
      <trkpt lat="36.936362" lon="-2.928309">
        <ele>1211.889</ele>
        <time>2023-01-11T22:05:56Z</time>
      </trkpt>
      <trkpt lat="36.935831" lon="-2.928364">
        <ele>1217.011</ele>
        <time>2023-01-11T22:06:06Z</time>
      </trkpt>
      <trkpt lat="36.936047" lon="-2.927956">
        <ele>1222.421</ele>
        <time>2023-01-11T22:06:16Z</time>
      </trkpt>
      <trkpt lat="36.935080" lon="-2.927763">
        <ele>1231.203</ele>
        <time>2023-01-11T22:06:36Z</time>
      </trkpt>
      <trkpt lat="36.935758" lon="-2.927298">
        <ele>1240.208</ele>
        <time>2023-01-11T22:07:06Z</time>
      </trkpt>
      <trkpt lat="36.934144" lon="-2.926282">
        <ele>1255.050</ele>
        <time>2023-01-11T22:07:26Z</time>
      </trkpt>
      <trkpt lat="36.933305" lon="-2.926525">
        <ele>1261.063</ele>
        <time>2023-01-11T22:07:46Z</time>
      </trkpt>
      <trkpt lat="36.931733" lon="-2.924308">
        <ele>1287.816</ele>
        <time>2023-01-11T22:08:26Z</time>
      </trkpt>
      <trkpt lat="36.931074" lon="-2.924693">
        <ele>1292.619</ele>
        <time>2023-01-11T22:08:56Z</time>
      </trkpt>
      <trkpt lat="36.931266" lon="-2.924404">
        <ele>1296.273</ele>
        <time>2023-01-11T22:09:06Z</time>
      </trkpt>
      <trkpt lat="36.930693" lon="-2.924402">
        <ele>1301.453</ele>
        <time>2023-01-11T22:09:16Z</time>
      </trkpt>
      <trkpt lat="36.930787" lon="-2.923338">
        <ele>1309.021</ele>
        <time>2023-01-11T22:09:36Z</time>
      </trkpt>
      <trkpt lat="36.929607" lon="-2.918993">
        <ele>1341.265</ele>
        <time>2023-01-11T22:10:06Z</time>
      </trkpt>
      <trkpt lat="36.927802" lon="-2.918412">
        <ele>1352.099</ele>
        <time>2023-01-11T22:10:36Z</time>
      </trkpt>
      <trkpt lat="36.927306" lon="-2.916673">
        <ele>1360.207</ele>
        <time>2023-01-11T22:10:56Z</time>
      </trkpt>
      <trkpt lat="36.926477" lon="-2.915610">
        <ele>1368.827</ele>
        <time>2023-01-11T22:11:16Z</time>
      </trkpt>
      <trkpt lat="36.926969" lon="-2.915758">
        <ele>1373.408</ele>
        <time>2023-01-11T22:11:26Z</time>
      </trkpt>
      <trkpt lat="36.926461" lon="-2.915075">
        <ele>1380.848</ele>
        <time>2023-01-11T22:11:46Z</time>
      </trkpt>
      <trkpt lat="36.930674" lon="-2.917454">
        <ele>1413.251</ele>
        <time>2023-01-11T22:12:26Z</time>
      </trkpt>
      <trkpt lat="36.933055" lon="-2.917299">
        <ele>1435.484</ele>
        <time>2023-01-11T22:12:36Z</time>
      </trkpt>
      <trkpt lat="36.930408" lon="-2.916007">
        <ele>1457.057</ele>
        <time>2023-01-11T22:12:56Z</time>
      </trkpt>
      <trkpt lat="36.927462" lon="-2.912615">
        <ele>1491.071</ele>
        <time>2023-01-11T22:13:26Z</time>
      </trkpt>
      <trkpt lat="36.925210" lon="-2.910813">
        <ele>1510.271</ele>
        <time>2023-01-11T22:13:46Z</time>
      </trkpt>
      <trkpt lat="36.924132" lon="-2.906569">
        <ele>1540.699</ele>
        <time>2023-01-11T22:14:06Z</time>
      </trkpt>
      <trkpt lat="36.925062" lon="-2.903903">
        <ele>1548.853</ele>
        <time>2023-01-11T22:14:26Z</time>
      </trkpt>
      <trkpt lat="36.926977" lon="-2.902326">
        <ele>1552.454</ele>
        <time>2023-01-11T22:14:46Z</time>
      </trkpt>
      <trkpt lat="36.936038" lon="-2.901456">
        <ele>1548.856</ele>
        <time>2023-01-11T22:15:16Z</time>
      </trkpt>
      <trkpt lat="36.937622" lon="-2.902193">
        <ele>1555.211</ele>
        <time>2023-01-11T22:15:36Z</time>
      </trkpt>
      <trkpt lat="36.937660" lon="-2.904150">
        <ele>1543.208</ele>
        <time>2023-01-11T22:15:46Z</time>
      </trkpt>
      <trkpt lat="36.939129" lon="-2.904587">
        <ele>1528.444</ele>
        <time>2023-01-11T22:16:06Z</time>
      </trkpt>
      <trkpt lat="36.939682" lon="-2.902630">
        <ele>1515.047</ele>
        <time>2023-01-11T22:16:36Z</time>
      </trkpt>
      <trkpt lat="36.941203" lon="-2.901566">
        <ele>1496.870</ele>
        <time>2023-01-11T22:16:46Z</time>
      </trkpt>
      <trkpt lat="36.941252" lon="-2.900946">
        <ele>1490.213</ele>
        <time>2023-01-11T22:16:56Z</time>
      </trkpt>
      <trkpt lat="36.940017" lon="-2.898838">
        <ele>1473.417</ele>
        <time>2023-01-11T22:17:16Z</time>
      </trkpt>
      <trkpt lat="36.940075" lon="-2.894123">
        <ele>1446.617</ele>
        <time>2023-01-11T22:17:56Z</time>
      </trkpt>
      <trkpt lat="36.939680" lon="-2.893145">
        <ele>1443.495</ele>
        <time>2023-01-11T22:18:06Z</time>
      </trkpt>
      <trkpt lat="36.939977" lon="-2.892550">
        <ele>1448.079</ele>
        <time>2023-01-11T22:18:16Z</time>
      </trkpt>
      <trkpt lat="36.939798" lon="-2.891753">
        <ele>1452.222</ele>
        <time>2023-01-11T22:18:26Z</time>
      </trkpt>
      <trkpt lat="36.940643" lon="-2.890138">
        <ele>1457.462</ele>
        <time>2023-01-11T22:18:36Z</time>
      </trkpt>
      <trkpt lat="36.942096" lon="-2.889088">
        <ele>1457.808</ele>
        <time>2023-01-11T22:18:46Z</time>
      </trkpt>
      <trkpt lat="36.943441" lon="-2.887162">
        <ele>1455.808</ele>
        <time>2023-01-11T22:19:16Z</time>
      </trkpt>
      <trkpt lat="36.942821" lon="-2.886387">
        <ele>1452.041</ele>
        <time>2023-01-11T22:19:26Z</time>
      </trkpt>
      <trkpt lat="36.941498" lon="-2.886176">
        <ele>1445.484</ele>
        <time>2023-01-11T22:19:36Z</time>
      </trkpt>
      <trkpt lat="36.942465" lon="-2.885258">
        <ele>1439.097</ele>
        <time>2023-01-11T22:20:06Z</time>
      </trkpt>
      <trkpt lat="36.942833" lon="-2.884159">
        <ele>1434.240</ele>
        <time>2023-01-11T22:20:16Z</time>
      </trkpt>
      <trkpt lat="36.942121" lon="-2.883692">
        <ele>1427.234</ele>
        <time>2023-01-11T22:20:26Z</time>
      </trkpt>
      <trkpt lat="36.942355" lon="-2.882606">
        <ele>1423.034</ele>
        <time>2023-01-11T22:20:36Z</time>
      </trkpt>
      <trkpt lat="36.941401" lon="-2.879647">
        <ele>1411.012</ele>
        <time>2023-01-11T22:20:46Z</time>
      </trkpt>
      <trkpt lat="36.939933" lon="-2.879375">
        <ele>1407.496</ele>
        <time>2023-01-11T22:21:06Z</time>
      </trkpt>
      <trkpt lat="36.941029" lon="-2.878132">
        <ele>1402.845</ele>
        <time>2023-01-11T22:21:26Z</time>
      </trkpt>
      <trkpt lat="36.942776" lon="-2.877694">
        <ele>1398.447</ele>
        <time>2023-01-11T22:21:46Z</time>
      </trkpt>
      <trkpt lat="36.945109" lon="-2.878253">
        <ele>1399.011</ele>
        <time>2023-01-11T22:22:06Z</time>
      </trkpt>
      <trkpt lat="36.946061" lon="-2.876367">
        <ele>1399.608</ele>
        <time>2023-01-11T22:22:26Z</time>
      </trkpt>
      <trkpt lat="36.947486" lon="-2.876339">
        <ele>1396.293</ele>
        <time>2023-01-11T22:22:36Z</time>
      </trkpt>
      <trkpt lat="36.947221" lon="-2.873554">
        <ele>1389.626</ele>
        <time>2023-01-11T22:22:56Z</time>
      </trkpt>
      <trkpt lat="36.947929" lon="-2.871859">
        <ele>1381.619</ele>
        <time>2023-01-11T22:23:06Z</time>
      </trkpt>
      <trkpt lat="36.948724" lon="-2.871097">
        <ele>1375.822</ele>
        <time>2023-01-11T22:23:26Z</time>
      </trkpt>
      <trkpt lat="36.947342" lon="-2.869288">
        <ele>1370.496</ele>
        <time>2023-01-11T22:23:46Z</time>
      </trkpt>
      <trkpt lat="36.951039" lon="-2.867565">
        <ele>1363.696</ele>
        <time>2023-01-11T22:24:16Z</time>
      </trkpt>
      <trkpt lat="36.951716" lon="-2.864793">
        <ele>1359.074</ele>
        <time>2023-01-11T22:24:46Z</time>
      </trkpt>
      <trkpt lat="36.950607" lon="-2.861548">
        <ele>1344.828</ele>
        <time>2023-01-11T22:25:06Z</time>
      </trkpt>
      <trkpt lat="36.950638" lon="-2.860604">
        <ele>1342.637</ele>
        <time>2023-01-11T22:25:16Z</time>
      </trkpt>
      <trkpt lat="36.950116" lon="-2.860048">
        <ele>1340.449</ele>
        <time>2023-01-11T22:25:36Z</time>
      </trkpt>
      <trkpt lat="36.950773" lon="-2.859241">
        <ele>1337.613</ele>
        <time>2023-01-11T22:25:46Z</time>
      </trkpt>
      <trkpt lat="36.951399" lon="-2.856348">
        <ele>1341.608</ele>
        <time>2023-01-11T22:26:16Z</time>
      </trkpt>
      <trkpt lat="36.950994" lon="-2.855636">
        <ele>1346.022</ele>
        <time>2023-01-11T22:26:26Z</time>
      </trkpt>
      <trkpt lat="36.951012" lon="-2.854458">
        <ele>1351.895</ele>
        <time>2023-01-11T22:26:36Z</time>
      </trkpt>
      <trkpt lat="36.952078" lon="-2.853093">
        <ele>1360.488</ele>
        <time>2023-01-11T22:26:46Z</time>
      </trkpt>
      <trkpt lat="36.950962" lon="-2.851757">
        <ele>1367.421</ele>
        <time>2023-01-11T22:26:56Z</time>
      </trkpt>
      <trkpt lat="36.951003" lon="-2.850140">
        <ele>1374.215</ele>
        <time>2023-01-11T22:27:16Z</time>
      </trkpt>
      <trkpt lat="36.952710" lon="-2.849237">
        <ele>1383.245</ele>
        <time>2023-01-11T22:27:46Z</time>
      </trkpt>
      <trkpt lat="36.953625" lon="-2.849261">
        <ele>1387.473</ele>
        <time>2023-01-11T22:28:06Z</time>
      </trkpt>
      <trkpt lat="36.954397" lon="-2.846674">
        <ele>1399.657</ele>
        <time>2023-01-11T22:28:36Z</time>
      </trkpt>
      <trkpt lat="36.955573" lon="-2.845155">
        <ele>1412.213</ele>
        <time>2023-01-11T22:29:06Z</time>
      </trkpt>
      <trkpt lat="36.954261" lon="-2.844782">
        <ele>1421.043</ele>
        <time>2023-01-11T22:29:26Z</time>
      </trkpt>
      <trkpt lat="36.952395" lon="-2.846164">
        <ele>1433.207</ele>
        <time>2023-01-11T22:29:56Z</time>
      </trkpt>
      <trkpt lat="36.951471" lon="-2.844878">
        <ele>1439.208</ele>
        <time>2023-01-11T22:30:16Z</time>
      </trkpt>
      <trkpt lat="36.950854" lon="-2.845442">
        <ele>1441.270</ele>
        <time>2023-01-11T22:30:36Z</time>
      </trkpt>
      <trkpt lat="36.949677" lon="-2.848275">
        <ele>1445.423</ele>
        <time>2023-01-11T22:30:56Z</time>
      </trkpt>
      <trkpt lat="36.947958" lon="-2.849261">
        <ele>1442.836</ele>
        <time>2023-01-11T22:31:16Z</time>
      </trkpt>
      <trkpt lat="36.948427" lon="-2.847060">
        <ele>1448.649</ele>
        <time>2023-01-11T22:31:46Z</time>
      </trkpt>
      <trkpt lat="36.948038" lon="-2.845249">
        <ele>1454.423</ele>
        <time>2023-01-11T22:31:56Z</time>
      </trkpt>
      <trkpt lat="36.947431" lon="-2.844578">
        <ele>1458.063</ele>
        <time>2023-01-11T22:32:06Z</time>
      </trkpt>
      <trkpt lat="36.946235" lon="-2.844671">
        <ele>1462.691</ele>
        <time>2023-01-11T22:32:16Z</time>
      </trkpt>
      <trkpt lat="36.946969" lon="-2.840549">
        <ele>1478.225</ele>
        <time>2023-01-11T22:32:46Z</time>
      </trkpt>
      <trkpt lat="36.946680" lon="-2.840376">
        <ele>1479.453</ele>
        <time>2023-01-11T22:32:56Z</time>
      </trkpt>
      <trkpt lat="36.946733" lon="-2.839444">
        <ele>1482.404</ele>
        <time>2023-01-11T22:33:06Z</time>
      </trkpt>
      <trkpt lat="36.946048" lon="-2.838960">
        <ele>1486.814</ele>
        <time>2023-01-11T22:33:16Z</time>
      </trkpt>
      <trkpt lat="36.946833" lon="-2.837766">
        <ele>1492.208</ele>
        <time>2023-01-11T22:33:36Z</time>
      </trkpt>
      <trkpt lat="36.946439" lon="-2.836961">
        <ele>1495.834</ele>
        <time>2023-01-11T22:33:46Z</time>
      </trkpt>
      <trkpt lat="36.945093" lon="-2.836474">
        <ele>1503.677</ele>
        <time>2023-01-11T22:33:56Z</time>
      </trkpt>
      <trkpt lat="36.943287" lon="-2.838654">
        <ele>1514.690</ele>
        <time>2023-01-11T22:34:26Z</time>
      </trkpt>
      <trkpt lat="36.941952" lon="-2.839310">
        <ele>1518.623</ele>
        <time>2023-01-11T22:34:46Z</time>
      </trkpt>
      <trkpt lat="36.941956" lon="-2.836815">
        <ele>1525.887</ele>
        <time>2023-01-11T22:35:16Z</time>
      </trkpt>
      <trkpt lat="36.941414" lon="-2.836507">
        <ele>1529.697</ele>
        <time>2023-01-11T22:35:26Z</time>
      </trkpt>
      <trkpt lat="36.941016" lon="-2.835365">
        <ele>1536.475</ele>
        <time>2023-01-11T22:35:46Z</time>
      </trkpt>
      <trkpt lat="36.939562" lon="-2.834769">
        <ele>1546.489</ele>
        <time>2023-01-11T22:35:56Z</time>
      </trkpt>
      <trkpt lat="36.939660" lon="-2.833592">
        <ele>1554.254</ele>
        <time>2023-01-11T22:36:16Z</time>
      </trkpt>
      <trkpt lat="36.938200" lon="-2.833511">
        <ele>1565.656</ele>
        <time>2023-01-11T22:36:26Z</time>
      </trkpt>
      <trkpt lat="36.935673" lon="-2.834639">
        <ele>1585.411</ele>
        <time>2023-01-11T22:36:56Z</time>
      </trkpt>
      <trkpt lat="36.936124" lon="-2.833197">
        <ele>1593.008</ele>
        <time>2023-01-11T22:37:16Z</time>
      </trkpt>
      <trkpt lat="36.934204" lon="-2.833275">
        <ele>1596.214</ele>
        <time>2023-01-11T22:37:36Z</time>
      </trkpt>
      <trkpt lat="36.932710" lon="-2.835172">
        <ele>1598.637</ele>
        <time>2023-01-11T22:37:56Z</time>
      </trkpt>
      <trkpt lat="36.930447" lon="-2.836060">
        <ele>1597.030</ele>
        <time>2023-01-11T22:38:36Z</time>
      </trkpt>
      <trkpt lat="36.929529" lon="-2.835221">
        <ele>1592.213</ele>
        <time>2023-01-11T22:38:56Z</time>
      </trkpt>
      <trkpt lat="36.930039" lon="-2.835014">
        <ele>1585.897</ele>
        <time>2023-01-11T22:39:16Z</time>
      </trkpt>
      <trkpt lat="36.930615" lon="-2.832983">
        <ele>1588.047</ele>
        <time>2023-01-11T22:39:36Z</time>
      </trkpt>
      <trkpt lat="36.928149" lon="-2.832414">
        <ele>1599.285</ele>
        <time>2023-01-11T22:40:06Z</time>
      </trkpt>
      <trkpt lat="36.926856" lon="-2.831386">
        <ele>1605.059</ele>
        <time>2023-01-11T22:40:26Z</time>
      </trkpt>
      <trkpt lat="36.929114" lon="-2.830585">
        <ele>1612.287</ele>
        <time>2023-01-11T22:40:46Z</time>
      </trkpt>
      <trkpt lat="36.931121" lon="-2.827987">
        <ele>1622.642</ele>
        <time>2023-01-11T22:41:06Z</time>
      </trkpt>
      <trkpt lat="36.929176" lon="-2.824434">
        <ele>1639.226</ele>
        <time>2023-01-11T22:41:56Z</time>
      </trkpt>
      <trkpt lat="36.928754" lon="-2.824476">
        <ele>1641.408</ele>
        <time>2023-01-11T22:42:06Z</time>
      </trkpt>
      <trkpt lat="36.927946" lon="-2.826466">
        <ele>1643.847</ele>
        <time>2023-01-11T22:42:36Z</time>
      </trkpt>
      <trkpt lat="36.926230" lon="-2.825050">
        <ele>1648.280</ele>
        <time>2023-01-11T22:42:56Z</time>
      </trkpt>
      <trkpt lat="36.925800" lon="-2.822772">
        <ele>1653.213</ele>
        <time>2023-01-11T22:43:16Z</time>
      </trkpt>
      <trkpt lat="36.924375" lon="-2.823638">
        <ele>1659.016</ele>
        <time>2023-01-11T22:43:36Z</time>
      </trkpt>
      <trkpt lat="36.924190" lon="-2.821386">
        <ele>1662.050</ele>
        <time>2023-01-11T22:43:46Z</time>
      </trkpt>
      <trkpt lat="36.923451" lon="-2.819318">
        <ele>1664.490</ele>
        <time>2023-01-11T22:43:56Z</time>
      </trkpt>
      <trkpt lat="36.920696" lon="-2.818578">
        <ele>1660.838</ele>
        <time>2023-01-11T22:44:36Z</time>
      </trkpt>
      <trkpt lat="36.921388" lon="-2.817178">
        <ele>1655.682</ele>
        <time>2023-01-11T22:45:06Z</time>
      </trkpt>
      <trkpt lat="36.919312" lon="-2.815459">
        <ele>1649.099</ele>
        <time>2023-01-11T22:45:36Z</time>
      </trkpt>
      <trkpt lat="36.917335" lon="-2.815724">
        <ele>1642.807</ele>
        <time>2023-01-11T22:46:06Z</time>
      </trkpt>
      <trkpt lat="36.917731" lon="-2.812707">
        <ele>1630.827</ele>
        <time>2023-01-11T22:46:36Z</time>
      </trkpt>
      <trkpt lat="36.917331" lon="-2.811631">
        <ele>1625.808</ele>
        <time>2023-01-11T22:46:56Z</time>
      </trkpt>
      <trkpt lat="36.915792" lon="-2.809762">
        <ele>1620.048</ele>
        <time>2023-01-11T22:47:16Z</time>
      </trkpt>
      <trkpt lat="36.914363" lon="-2.809441">
        <ele>1616.411</ele>
        <time>2023-01-11T22:47:36Z</time>
      </trkpt>
      <trkpt lat="36.915030" lon="-2.808836">
        <ele>1613.274</ele>
        <time>2023-01-11T22:47:56Z</time>
      </trkpt>
      <trkpt lat="36.918201" lon="-2.808623">
        <ele>1619.477</ele>
        <time>2023-01-11T22:48:36Z</time>
      </trkpt>
      <trkpt lat="36.921033" lon="-2.810271">
        <ele>1635.411</ele>
        <time>2023-01-11T22:49:16Z</time>
      </trkpt>
      <trkpt lat="36.918028" lon="-2.806586">
        <ele>1652.671</ele>
        <time>2023-01-11T22:49:36Z</time>
      </trkpt>
      <trkpt lat="36.915998" lon="-2.805058">
        <ele>1656.859</ele>
        <time>2023-01-11T22:50:16Z</time>
      </trkpt>
      <trkpt lat="36.915778" lon="-2.803504">
        <ele>1657.213</ele>
        <time>2023-01-11T22:50:36Z</time>
      </trkpt>
      <trkpt lat="36.916888" lon="-2.802144">
        <ele>1658.269</ele>
        <time>2023-01-11T22:51:06Z</time>
      </trkpt>
      <trkpt lat="36.915366" lon="-2.800149">
        <ele>1658.204</ele>
        <time>2023-01-11T22:51:36Z</time>
      </trkpt>
      <trkpt lat="36.916548" lon="-2.799735">
        <ele>1659.424</ele>
        <time>2023-01-11T22:51:46Z</time>
      </trkpt>
      <trkpt lat="36.916968" lon="-2.798007">
        <ele>1662.208</ele>
        <time>2023-01-11T22:52:06Z</time>
      </trkpt>
      <trkpt lat="36.916061" lon="-2.796629">
        <ele>1664.615</ele>
        <time>2023-01-11T22:52:16Z</time>
      </trkpt>
      <trkpt lat="36.914862" lon="-2.795821">
        <ele>1667.218</ele>
        <time>2023-01-11T22:52:26Z</time>
      </trkpt>
      <trkpt lat="36.915442" lon="-2.794938">
        <ele>1668.871</ele>
        <time>2023-01-11T22:52:46Z</time>
      </trkpt>
      <trkpt lat="36.914239" lon="-2.794584">
        <ele>1675.244</ele>
        <time>2023-01-11T22:52:56Z</time>
      </trkpt>
      <trkpt lat="36.913361" lon="-2.795002">
        <ele>1676.498</ele>
        <time>2023-01-11T22:53:06Z</time>
      </trkpt>
      <trkpt lat="36.911889" lon="-2.796814">
        <ele>1673.298</ele>
        <time>2023-01-11T22:53:36Z</time>
      </trkpt>
      <trkpt lat="36.911052" lon="-2.796987">
        <ele>1669.036</ele>
        <time>2023-01-11T22:53:46Z</time>
      </trkpt>
      <trkpt lat="36.911699" lon="-2.795301">
        <ele>1673.040</ele>
        <time>2023-01-11T22:53:56Z</time>
      </trkpt>
      <trkpt lat="36.911516" lon="-2.793859">
        <ele>1681.887</ele>
        <time>2023-01-11T22:54:06Z</time>
      </trkpt>
      <trkpt lat="36.911033" lon="-2.793103">
        <ele>1687.242</ele>
        <time>2023-01-11T22:54:16Z</time>
      </trkpt>
      <trkpt lat="36.908706" lon="-2.791539">
        <ele>1708.626</ele>
        <time>2023-01-11T22:54:46Z</time>
      </trkpt>
      <trkpt lat="36.908184" lon="-2.789953">
        <ele>1719.808</ele>
        <time>2023-01-11T22:55:06Z</time>
      </trkpt>
      <trkpt lat="36.908123" lon="-2.791842">
        <ele>1734.657</ele>
        <time>2023-01-11T22:55:36Z</time>
      </trkpt>
      <trkpt lat="36.909483" lon="-2.795173">
        <ele>1762.610</ele>
        <time>2023-01-11T22:56:06Z</time>
      </trkpt>
      <trkpt lat="36.908448" lon="-2.796277">
        <ele>1775.463</ele>
        <time>2023-01-11T22:56:26Z</time>
      </trkpt>
      <trkpt lat="36.907800" lon="-2.796184">
        <ele>1779.486</ele>
        <time>2023-01-11T22:56:36Z</time>
      </trkpt>
      <trkpt lat="36.904984" lon="-2.793905">
        <ele>1798.480</ele>
        <time>2023-01-11T22:56:56Z</time>
      </trkpt>
      <trkpt lat="36.902170" lon="-2.792348">
        <ele>1824.490</ele>
        <time>2023-01-11T22:57:36Z</time>
      </trkpt>
      <trkpt lat="36.902348" lon="-2.794492">
        <ele>1836.698</ele>
        <time>2023-01-11T22:57:56Z</time>
      </trkpt>
      <trkpt lat="36.901282" lon="-2.796635">
        <ele>1851.872</ele>
        <time>2023-01-11T22:58:06Z</time>
      </trkpt>
      <trkpt lat="36.902369" lon="-2.797422">
        <ele>1859.647</ele>
        <time>2023-01-11T22:58:16Z</time>
      </trkpt>
      <trkpt lat="36.902745" lon="-2.799021">
        <ele>1870.629</ele>
        <time>2023-01-11T22:58:26Z</time>
      </trkpt>
      <trkpt lat="36.903761" lon="-2.799885">
        <ele>1879.421</ele>
        <time>2023-01-11T22:58:36Z</time>
      </trkpt>
      <trkpt lat="36.904000" lon="-2.800652">
        <ele>1883.808</ele>
        <time>2023-01-11T22:58:46Z</time>
      </trkpt>
      <trkpt lat="36.905999" lon="-2.802246">
        <ele>1901.233</ele>
        <time>2023-01-11T22:59:26Z</time>
      </trkpt>
      <trkpt lat="36.904855" lon="-2.802478">
        <ele>1906.046</ele>
        <time>2023-01-11T22:59:46Z</time>
      </trkpt>
      <trkpt lat="36.903264" lon="-2.803968">
        <ele>1914.089</ele>
        <time>2023-01-11T23:00:16Z</time>
      </trkpt>
      <trkpt lat="36.903512" lon="-2.802302">
        <ele>1925.032</ele>
        <time>2023-01-11T23:00:36Z</time>
      </trkpt>
      <trkpt lat="36.903256" lon="-2.801703">
        <ele>1929.426</ele>
        <time>2023-01-11T23:00:56Z</time>
      </trkpt>
      <trkpt lat="36.902093" lon="-2.804527">
        <ele>1948.496</ele>
        <time>2023-01-11T23:01:26Z</time>
      </trkpt>
      <trkpt lat="36.898653" lon="-2.800485">
        <ele>1958.044</ele>
        <time>2023-01-11T23:01:36Z</time>
      </trkpt>
      <trkpt lat="36.897540" lon="-2.801090">
        <ele>1962.268</ele>
        <time>2023-01-11T23:01:56Z</time>
      </trkpt>
      <trkpt lat="36.898059" lon="-2.805102">
        <ele>1975.612</ele>
        <time>2023-01-11T23:02:26Z</time>
      </trkpt>
      <trkpt lat="36.897292" lon="-2.805516">
        <ele>1978.232</ele>
        <time>2023-01-11T23:02:46Z</time>
      </trkpt>
      <trkpt lat="36.895408" lon="-2.805148">
        <ele>1977.805</ele>
        <time>2023-01-11T23:03:06Z</time>
      </trkpt>
      <trkpt lat="36.893641" lon="-2.800517">
        <ele>1974.208</ele>
        <time>2023-01-11T23:03:26Z</time>
      </trkpt>
      <trkpt lat="36.892403" lon="-2.801892">
        <ele>1968.860</ele>
        <time>2023-01-11T23:03:56Z</time>
      </trkpt>
      <trkpt lat="36.891323" lon="-2.801952">
        <ele>1964.883</ele>
        <time>2023-01-11T23:04:06Z</time>
      </trkpt>
      <trkpt lat="36.890071" lon="-2.801368">
        <ele>1956.616</ele>
        <time>2023-01-11T23:04:16Z</time>
      </trkpt>
      <trkpt lat="36.887593" lon="-2.802569">
        <ele>1945.859</ele>
        <time>2023-01-11T23:04:36Z</time>
      </trkpt>
      <trkpt lat="36.885954" lon="-2.800567">
        <ele>1954.053</ele>
        <time>2023-01-11T23:04:56Z</time>
      </trkpt>
      <trkpt lat="36.884972" lon="-2.800851">
        <ele>1961.883</ele>
        <time>2023-01-11T23:05:16Z</time>
      </trkpt>
      <trkpt lat="36.884512" lon="-2.804950">
        <ele>1997.671</ele>
        <time>2023-01-11T23:05:56Z</time>
      </trkpt>
      <trkpt lat="36.885726" lon="-2.806882">
        <ele>1998.065</ele>
        <time>2023-01-11T23:06:16Z</time>
      </trkpt>
      <trkpt lat="36.887529" lon="-2.807242">
        <ele>2000.076</ele>
        <time>2023-01-11T23:06:36Z</time>
      </trkpt>
      <trkpt lat="36.887863" lon="-2.808724">
        <ele>1991.890</ele>
        <time>2023-01-11T23:06:56Z</time>
      </trkpt>
      <trkpt lat="36.887385" lon="-2.809276">
        <ele>1987.419</ele>
        <time>2023-01-11T23:07:06Z</time>
      </trkpt>
      <trkpt lat="36.887125" lon="-2.812425">
        <ele>1982.208</ele>
        <time>2023-01-11T23:07:26Z</time>
      </trkpt>
      <trkpt lat="36.892392" lon="-2.814302">
        <ele>1970.626</ele>
        <time>2023-01-11T23:08:06Z</time>
      </trkpt>
      <trkpt lat="36.892827" lon="-2.814931">
        <ele>1964.239</ele>
        <time>2023-01-11T23:08:16Z</time>
      </trkpt>
      <trkpt lat="36.891246" lon="-2.816109">
        <ele>1955.822</ele>
        <time>2023-01-11T23:08:26Z</time>
      </trkpt>
      <trkpt lat="36.890427" lon="-2.817539">
        <ele>1943.845</ele>
        <time>2023-01-11T23:08:36Z</time>
      </trkpt>
      <trkpt lat="36.891856" lon="-2.817077">
        <ele>1927.229</ele>
        <time>2023-01-11T23:08:56Z</time>
      </trkpt>
      <trkpt lat="36.891943" lon="-2.817925">
        <ele>1922.689</ele>
        <time>2023-01-11T23:09:16Z</time>
      </trkpt>
      <trkpt lat="36.891257" lon="-2.819103">
        <ele>1914.297</ele>
        <time>2023-01-11T23:09:36Z</time>
      </trkpt>
      <trkpt lat="36.889343" lon="-2.820302">
        <ele>1892.021</ele>
        <time>2023-01-11T23:09:46Z</time>
      </trkpt>
      <trkpt lat="36.888125" lon="-2.823102">
        <ele>1869.071</ele>
        <time>2023-01-11T23:09:56Z</time>
      </trkpt>
      <trkpt lat="36.886265" lon="-2.824579">
        <ele>1861.241</ele>
        <time>2023-01-11T23:10:06Z</time>
      </trkpt>
      <trkpt lat="36.882665" lon="-2.829489">
        <ele>1831.615</ele>
        <time>2023-01-11T23:10:36Z</time>
      </trkpt>
      <trkpt lat="36.881214" lon="-2.830732">
        <ele>1808.808</ele>
        <time>2023-01-11T23:10:56Z</time>
      </trkpt>
      <trkpt lat="36.879862" lon="-2.833435">
        <ele>1770.436</ele>
        <time>2023-01-11T23:11:06Z</time>
      </trkpt>
      <trkpt lat="36.878933" lon="-2.837313">
        <ele>1735.819</ele>
        <time>2023-01-11T23:11:36Z</time>
      </trkpt>
      <trkpt lat="36.879356" lon="-2.838799">
        <ele>1716.452</ele>
        <time>2023-01-11T23:11:46Z</time>
      </trkpt>
      <trkpt lat="36.878640" lon="-2.838699">
        <ele>1714.235</ele>
        <time>2023-01-11T23:11:56Z</time>
      </trkpt>
      <trkpt lat="36.878228" lon="-2.839844">
        <ele>1720.079</ele>
        <time>2023-01-11T23:12:06Z</time>
      </trkpt>
      <trkpt lat="36.875702" lon="-2.842551">
        <ele>1746.469</ele>
        <time>2023-01-11T23:12:36Z</time>
      </trkpt>
      <trkpt lat="36.872572" lon="-2.844044">
        <ele>1759.447</ele>
        <time>2023-01-11T23:13:06Z</time>
      </trkpt>
      <trkpt lat="36.871714" lon="-2.845154">
        <ele>1757.671</ele>
        <time>2023-01-11T23:13:16Z</time>
      </trkpt>
      <trkpt lat="36.871532" lon="-2.846118">
        <ele>1760.861</ele>
        <time>2023-01-11T23:13:26Z</time>
      </trkpt>
      <trkpt lat="36.872862" lon="-2.849741">
        <ele>1769.021</ele>
        <time>2023-01-11T23:13:56Z</time>
      </trkpt>
      <trkpt lat="36.874466" lon="-2.850831">
        <ele>1771.613</ele>
        <time>2023-01-11T23:14:16Z</time>
      </trkpt>
      <trkpt lat="36.875776" lon="-2.850465">
        <ele>1774.808</ele>
        <time>2023-01-11T23:14:36Z</time>
      </trkpt>
      <trkpt lat="36.875964" lon="-2.853338">
        <ele>1776.255</ele>
        <time>2023-01-11T23:15:06Z</time>
      </trkpt>
      <trkpt lat="36.877782" lon="-2.856284">
        <ele>1766.448</ele>
        <time>2023-01-11T23:15:36Z</time>
      </trkpt>
      <trkpt lat="36.880692" lon="-2.858478">
        <ele>1758.671</ele>
        <time>2023-01-11T23:15:56Z</time>
      </trkpt>
      <trkpt lat="36.887283" lon="-2.861514">
        <ele>1763.014</ele>
        <time>2023-01-11T23:16:36Z</time>
      </trkpt>
      <trkpt lat="36.890875" lon="-2.862100">
        <ele>1767.238</ele>
        <time>2023-01-11T23:17:16Z</time>
      </trkpt>
      <trkpt lat="36.891912" lon="-2.862753">
        <ele>1771.638</ele>
        <time>2023-01-11T23:17:36Z</time>
      </trkpt>
      <trkpt lat="36.894671" lon="-2.863092">
        <ele>1790.296</ele>
        <time>2023-01-11T23:17:56Z</time>
      </trkpt>
      <trkpt lat="36.896514" lon="-2.865443">
        <ele>1799.620</ele>
        <time>2023-01-11T23:18:16Z</time>
      </trkpt>
      <trkpt lat="36.897853" lon="-2.866267">
        <ele>1796.495</ele>
        <time>2023-01-11T23:18:26Z</time>
      </trkpt>
      <trkpt lat="36.898742" lon="-2.867595">
        <ele>1792.649</ele>
        <time>2023-01-11T23:18:46Z</time>
      </trkpt>
      <trkpt lat="36.901327" lon="-2.869830">
        <ele>1776.823</ele>
        <time>2023-01-11T23:19:06Z</time>
      </trkpt>
      <trkpt lat="36.903374" lon="-2.870533">
        <ele>1767.608</ele>
        <time>2023-01-11T23:19:26Z</time>
      </trkpt>
      <trkpt lat="36.904573" lon="-2.871750">
        <ele>1762.488</ele>
        <time>2023-01-11T23:19:36Z</time>
      </trkpt>
      <trkpt lat="36.904440" lon="-2.872210">
        <ele>1761.221</ele>
        <time>2023-01-11T23:19:46Z</time>
      </trkpt>
      <trkpt lat="36.902881" lon="-2.872878">
        <ele>1764.684</ele>
        <time>2023-01-11T23:20:06Z</time>
      </trkpt>
      <trkpt lat="36.900790" lon="-2.875467">
        <ele>1774.497</ele>
        <time>2023-01-11T23:20:26Z</time>
      </trkpt>
      <trkpt lat="36.898327" lon="-2.877029">
        <ele>1786.041</ele>
        <time>2023-01-11T23:20:46Z</time>
      </trkpt>
      <trkpt lat="36.897845" lon="-2.878873">
        <ele>1791.041</ele>
        <time>2023-01-11T23:20:56Z</time>
      </trkpt>
      <trkpt lat="36.896744" lon="-2.880172">
        <ele>1800.419</ele>
        <time>2023-01-11T23:21:06Z</time>
      </trkpt>
      <trkpt lat="36.896228" lon="-2.881566">
        <ele>1806.843</ele>
        <time>2023-01-11T23:21:16Z</time>
      </trkpt>
      <trkpt lat="36.896943" lon="-2.882484">
        <ele>1814.413</ele>
        <time>2023-01-11T23:21:46Z</time>
      </trkpt>
      <trkpt lat="36.901611" lon="-2.880683">
        <ele>1859.643</ele>
        <time>2023-01-11T23:22:36Z</time>
      </trkpt>
      <trkpt lat="36.902582" lon="-2.880954">
        <ele>1870.807</ele>
        <time>2023-01-11T23:22:46Z</time>
      </trkpt>
      <trkpt lat="36.903557" lon="-2.880573">
        <ele>1881.008</ele>
        <time>2023-01-11T23:22:56Z</time>
      </trkpt>
      <trkpt lat="36.904571" lon="-2.881638">
        <ele>1885.070</ele>
        <time>2023-01-11T23:23:16Z</time>
      </trkpt>
      <trkpt lat="36.905503" lon="-2.881548">
        <ele>1885.223</ele>
        <time>2023-01-11T23:23:26Z</time>
      </trkpt>
      <trkpt lat="36.907868" lon="-2.882928">
        <ele>1880.216</ele>
        <time>2023-01-11T23:23:46Z</time>
      </trkpt>
      <trkpt lat="36.909076" lon="-2.881902">
        <ele>1858.869</ele>
        <time>2023-01-11T23:24:06Z</time>
      </trkpt>
      <trkpt lat="36.912836" lon="-2.881821">
        <ele>1833.083</ele>
        <time>2023-01-11T23:24:36Z</time>
      </trkpt>
      <trkpt lat="36.916142" lon="-2.883458">
        <ele>1822.853</ele>
        <time>2023-01-11T23:25:16Z</time>
      </trkpt>
      <trkpt lat="36.916827" lon="-2.887627">
        <ele>1799.441</ele>
        <time>2023-01-11T23:25:56Z</time>
      </trkpt>
      <trkpt lat="36.918714" lon="-2.887248">
        <ele>1809.835</ele>
        <time>2023-01-11T23:26:26Z</time>
      </trkpt>
      <trkpt lat="36.921834" lon="-2.889271">
        <ele>1794.651</ele>
        <time>2023-01-11T23:26:56Z</time>
      </trkpt>
      <trkpt lat="36.918674" lon="-2.889612">
        <ele>1770.201</ele>
        <time>2023-01-11T23:27:26Z</time>
      </trkpt>
      <trkpt lat="36.916484" lon="-2.890656">
        <ele>1735.811</ele>
        <time>2023-01-11T23:27:36Z</time>
      </trkpt>
      <trkpt lat="36.915162" lon="-2.890306">
        <ele>1722.208</ele>
        <time>2023-01-11T23:27:46Z</time>
      </trkpt>
      <trkpt lat="36.911182" lon="-2.894215">
        <ele>1687.624</ele>
        <time>2023-01-11T23:27:56Z</time>
      </trkpt>
      <trkpt lat="36.914539" lon="-2.895108">
        <ele>1654.267</ele>
        <time>2023-01-11T23:28:36Z</time>
      </trkpt>
      <trkpt lat="36.915791" lon="-2.898495">
        <ele>1635.830</ele>
        <time>2023-01-11T23:29:16Z</time>
      </trkpt>
      <trkpt lat="36.915398" lon="-2.898845">
        <ele>1633.413</ele>
        <time>2023-01-11T23:29:26Z</time>
      </trkpt>
      <trkpt lat="36.910270" lon="-2.896817">
        <ele>1600.217</ele>
        <time>2023-01-11T23:30:06Z</time>
      </trkpt>
      <trkpt lat="36.909110" lon="-2.896978">
        <ele>1589.097</ele>
        <time>2023-01-11T23:30:16Z</time>
      </trkpt>
      <trkpt lat="36.908113" lon="-2.894875">
        <ele>1571.615</ele>
        <time>2023-01-11T23:30:46Z</time>
      </trkpt>
      <trkpt lat="36.906020" lon="-2.895989">
        <ele>1557.689</ele>
        <time>2023-01-11T23:30:56Z</time>
      </trkpt>
      <trkpt lat="36.904339" lon="-2.895753">
        <ele>1545.492</ele>
        <time>2023-01-11T23:31:16Z</time>
      </trkpt>
      <trkpt lat="36.902226" lon="-2.894274">
        <ele>1535.473</ele>
        <time>2023-01-11T23:31:36Z</time>
      </trkpt>
      <trkpt lat="36.901642" lon="-2.893383">
        <ele>1533.020</ele>
        <time>2023-01-11T23:31:56Z</time>
      </trkpt>
      <trkpt lat="36.900372" lon="-2.894125">
        <ele>1526.408</ele>
        <time>2023-01-11T23:32:06Z</time>
      </trkpt>
      <trkpt lat="36.897563" lon="-2.893010">
        <ele>1507.018</ele>
        <time>2023-01-11T23:32:26Z</time>
      </trkpt>
      <trkpt lat="36.894191" lon="-2.894306">
        <ele>1484.831</ele>
        <time>2023-01-11T23:32:36Z</time>
      </trkpt>
      <trkpt lat="36.894114" lon="-2.895023">
        <ele>1477.494</ele>
        <time>2023-01-11T23:32:56Z</time>
      </trkpt>
      <trkpt lat="36.895374" lon="-2.894398">
        <ele>1470.417</ele>
        <time>2023-01-11T23:33:16Z</time>
      </trkpt>
      <trkpt lat="36.897517" lon="-2.894247">
        <ele>1473.061</ele>
        <time>2023-01-11T23:33:26Z</time>
      </trkpt>
      <trkpt lat="36.900250" lon="-2.895761">
        <ele>1459.061</ele>
        <time>2023-01-11T23:33:46Z</time>
      </trkpt>
      <trkpt lat="36.901205" lon="-2.895223">
        <ele>1451.869</ele>
        <time>2023-01-11T23:34:06Z</time>
      </trkpt>
      <trkpt lat="36.902958" lon="-2.897314">
        <ele>1440.613</ele>
        <time>2023-01-11T23:34:26Z</time>
      </trkpt>
      <trkpt lat="36.906391" lon="-2.898431">
        <ele>1417.695</ele>
        <time>2023-01-11T23:34:46Z</time>
      </trkpt>
      <trkpt lat="36.908602" lon="-2.902871">
        <ele>1393.049</ele>
        <time>2023-01-11T23:35:16Z</time>
      </trkpt>
      <trkpt lat="36.908693" lon="-2.903773">
        <ele>1386.423</ele>
        <time>2023-01-11T23:35:26Z</time>
      </trkpt>
      <trkpt lat="36.907979" lon="-2.903956">
        <ele>1374.608</ele>
        <time>2023-01-11T23:35:46Z</time>
      </trkpt>
      <trkpt lat="36.910093" lon="-2.904821">
        <ele>1401.658</ele>
        <time>2023-01-11T23:36:26Z</time>
      </trkpt>
      <trkpt lat="36.911802" lon="-2.906710">
        <ele>1400.431</ele>
        <time>2023-01-11T23:36:46Z</time>
      </trkpt>
      <trkpt lat="36.913189" lon="-2.907029">
        <ele>1393.494</ele>
        <time>2023-01-11T23:36:56Z</time>
      </trkpt>
      <trkpt lat="36.914604" lon="-2.908330">
        <ele>1393.867</ele>
        <time>2023-01-11T23:37:06Z</time>
      </trkpt>
      <trkpt lat="36.916506" lon="-2.908457">
        <ele>1386.431</ele>
        <time>2023-01-11T23:37:36Z</time>
      </trkpt>
      <trkpt lat="36.917962" lon="-2.910656">
        <ele>1373.251</ele>
        <time>2023-01-11T23:38:06Z</time>
      </trkpt>
      <trkpt lat="36.918437" lon="-2.913679">
        <ele>1363.669</ele>
        <time>2023-01-11T23:38:26Z</time>
      </trkpt>
      <trkpt lat="36.918960" lon="-2.914237">
        <ele>1356.023</ele>
        <time>2023-01-11T23:38:36Z</time>
      </trkpt>
      <trkpt lat="36.920040" lon="-2.914058">
        <ele>1345.695</ele>
        <time>2023-01-11T23:38:46Z</time>
      </trkpt>
      <trkpt lat="36.918436" lon="-2.916556">
        <ele>1323.649</ele>
        <time>2023-01-11T23:39:06Z</time>
      </trkpt>
      <trkpt lat="36.919167" lon="-2.919344">
        <ele>1306.823</ele>
        <time>2023-01-11T23:39:26Z</time>
      </trkpt>
      <trkpt lat="36.919716" lon="-2.919810">
        <ele>1303.608</ele>
        <time>2023-01-11T23:39:36Z</time>
      </trkpt>
      <trkpt lat="36.918872" lon="-2.925832">
        <ele>1216.258</ele>
        <time>2023-01-11T23:40:16Z</time>
      </trkpt>
      <trkpt lat="36.919558" lon="-2.927689">
        <ele>1206.231</ele>
        <time>2023-01-11T23:40:26Z</time>
      </trkpt>
      <trkpt lat="36.920293" lon="-2.933565">
        <ele>1106.264</ele>
        <time>2023-01-11T23:40:56Z</time>
      </trkpt>
      <trkpt lat="36.920173" lon="-2.937079">
        <ele>1040.827</ele>
        <time>2023-01-11T23:41:16Z</time>
      </trkpt>
      <trkpt lat="36.920452" lon="-2.937659">
        <ele>1019.831</ele>
        <time>2023-01-11T23:41:26Z</time>
      </trkpt>
      <trkpt lat="36.920360" lon="-2.939778">
        <ele>976.811</ele>
        <time>2023-01-11T23:41:56Z</time>
      </trkpt>
      <trkpt lat="36.918758" lon="-2.940139">
        <ele>964.869</ele>
        <time>2023-01-11T23:42:06Z</time>
      </trkpt>
      <trkpt lat="36.917984" lon="-2.939551">
        <ele>961.883</ele>
        <time>2023-01-11T23:42:26Z</time>
      </trkpt>
      <trkpt lat="36.917201" lon="-2.939630">
        <ele>960.666</ele>
        <time>2023-01-11T23:42:46Z</time>
      </trkpt>
      <trkpt lat="36.916668" lon="-2.936423">
        <ele>948.629</ele>
        <time>2023-01-11T23:43:06Z</time>
      </trkpt>
      <trkpt lat="36.915532" lon="-2.938428">
        <ele>949.421</ele>
        <time>2023-01-11T23:43:36Z</time>
      </trkpt>
      <trkpt lat="36.915246" lon="-2.938357">
        <ele>950.408</ele>
        <time>2023-01-11T23:43:46Z</time>
      </trkpt>
      <trkpt lat="36.914999" lon="-2.936774">
        <ele>953.295</ele>
        <time>2023-01-11T23:44:16Z</time>
      </trkpt>
      <trkpt lat="36.914075" lon="-2.937123">
        <ele>956.078</ele>
        <time>2023-01-11T23:44:36Z</time>
      </trkpt>
      <trkpt lat="36.913713" lon="-2.938016">
        <ele>958.221</ele>
        <time>2023-01-11T23:44:56Z</time>
      </trkpt>
      <trkpt lat="36.912520" lon="-2.937693">
        <ele>961.684</ele>
        <time>2023-01-11T23:45:16Z</time>
      </trkpt>
      <trkpt lat="36.910614" lon="-2.936237">
        <ele>967.848</ele>
        <time>2023-01-11T23:45:36Z</time>
      </trkpt>
      <trkpt lat="36.910292" lon="-2.933056">
        <ele>972.488</ele>
        <time>2023-01-11T23:46:06Z</time>
      </trkpt>
      <trkpt lat="36.911359" lon="-2.931856">
        <ele>976.866</ele>
        <time>2023-01-11T23:46:36Z</time>
      </trkpt>
      <trkpt lat="36.910191" lon="-2.930726">
        <ele>978.460</ele>
        <time>2023-01-11T23:46:46Z</time>
      </trkpt>
      <trkpt lat="36.910002" lon="-2.928904">
        <ele>978.011</ele>
        <time>2023-01-11T23:47:06Z</time>
      </trkpt>
      <trkpt lat="36.908426" lon="-2.930487">
        <ele>966.221</ele>
        <time>2023-01-11T23:47:26Z</time>
      </trkpt>
      <trkpt lat="36.907485" lon="-2.929814">
        <ele>952.603</ele>
        <time>2023-01-11T23:47:36Z</time>
      </trkpt>
      <trkpt lat="36.905963" lon="-2.931369">
        <ele>938.008</ele>
        <time>2023-01-11T23:47:56Z</time>
      </trkpt>
      <trkpt lat="36.904191" lon="-2.930387">
        <ele>927.470</ele>
        <time>2023-01-11T23:48:16Z</time>
      </trkpt>
      <trkpt lat="36.904847" lon="-2.929067">
        <ele>921.053</ele>
        <time>2023-01-11T23:48:46Z</time>
      </trkpt>
      <trkpt lat="36.903281" lon="-2.929201">
        <ele>918.066</ele>
        <time>2023-01-11T23:49:16Z</time>
      </trkpt>
      <trkpt lat="36.903928" lon="-2.926860">
        <ele>906.019</ele>
        <time>2023-01-11T23:49:36Z</time>
      </trkpt>
      <trkpt lat="36.901121" lon="-2.928514">
        <ele>905.693</ele>
        <time>2023-01-11T23:50:06Z</time>
      </trkpt>
      <trkpt lat="36.900563" lon="-2.927932">
        <ele>904.443</ele>
        <time>2023-01-11T23:50:26Z</time>
      </trkpt>
      <trkpt lat="36.899149" lon="-2.928813">
        <ele>898.461</ele>
        <time>2023-01-11T23:51:06Z</time>
      </trkpt>
      <trkpt lat="36.897284" lon="-2.928846">
        <ele>890.025</ele>
        <time>2023-01-11T23:51:36Z</time>
      </trkpt>
      <trkpt lat="36.896124" lon="-2.928340">
        <ele>888.027</ele>
        <time>2023-01-11T23:51:46Z</time>
      </trkpt>
      <trkpt lat="36.895389" lon="-2.926599">
        <ele>881.868</ele>
        <time>2023-01-11T23:51:56Z</time>
      </trkpt>
      <trkpt lat="36.894636" lon="-2.926624">
        <ele>879.814</ele>
        <time>2023-01-11T23:52:06Z</time>
      </trkpt>
      <trkpt lat="36.894896" lon="-2.925151">
        <ele>875.608</ele>
        <time>2023-01-11T23:52:26Z</time>
      </trkpt>
      <trkpt lat="36.893569" lon="-2.925200">
        <ele>869.221</ele>
        <time>2023-01-11T23:52:56Z</time>
      </trkpt>
      <trkpt lat="36.892443" lon="-2.924151">
        <ele>854.824</ele>
        <time>2023-01-11T23:53:06Z</time>
      </trkpt>
      <trkpt lat="36.891456" lon="-2.925278">
        <ele>842.667</ele>
        <time>2023-01-11T23:53:36Z</time>
      </trkpt>
      <trkpt lat="36.890674" lon="-2.924660">
        <ele>833.420</ele>
        <time>2023-01-11T23:53:46Z</time>
      </trkpt>
      <trkpt lat="36.890530" lon="-2.924035">
        <ele>827.864</ele>
        <time>2023-01-11T23:53:56Z</time>
      </trkpt>
      <trkpt lat="36.889468" lon="-2.923873">
        <ele>815.814</ele>
        <time>2023-01-11T23:54:06Z</time>
      </trkpt>
      <trkpt lat="36.888359" lon="-2.922036">
        <ele>793.292</ele>
        <time>2023-01-11T23:54:36Z</time>
      </trkpt>
      <trkpt lat="36.888637" lon="-2.920681">
        <ele>783.426</ele>
        <time>2023-01-11T23:54:46Z</time>
      </trkpt>
      <trkpt lat="36.887835" lon="-2.918626">
        <ele>781.873</ele>
        <time>2023-01-11T23:55:06Z</time>
      </trkpt>
      <trkpt lat="36.887596" lon="-2.920203">
        <ele>777.485</ele>
        <time>2023-01-11T23:55:36Z</time>
      </trkpt>
      <trkpt lat="36.886513" lon="-2.920026">
        <ele>774.813</ele>
        <time>2023-01-11T23:55:56Z</time>
      </trkpt>
      <trkpt lat="36.886778" lon="-2.922560">
        <ele>767.808</ele>
        <time>2023-01-11T23:56:26Z</time>
      </trkpt>
      <trkpt lat="36.885574" lon="-2.922501">
        <ele>756.826</ele>
        <time>2023-01-11T23:56:36Z</time>
      </trkpt>
      <trkpt lat="36.883439" lon="-2.921020">
        <ele>737.429</ele>
        <time>2023-01-11T23:57:06Z</time>
      </trkpt>
      <trkpt lat="36.882641" lon="-2.919650">
        <ele>735.622</ele>
        <time>2023-01-11T23:57:26Z</time>
      </trkpt>
      <trkpt lat="36.881185" lon="-2.919409">
        <ele>715.255</ele>
        <time>2023-01-11T23:57:56Z</time>
      </trkpt>
      <trkpt lat="36.880507" lon="-2.918843">
        <ele>709.249</ele>
        <time>2023-01-11T23:58:06Z</time>
      </trkpt>
      <trkpt lat="36.878480" lon="-2.918895">
        <ele>707.019</ele>
        <time>2023-01-11T23:58:26Z</time>
      </trkpt>
      <trkpt lat="36.877846" lon="-2.917659">
        <ele>707.877</ele>
        <time>2023-01-11T23:58:56Z</time>
      </trkpt>
      <trkpt lat="36.877192" lon="-2.917677">
        <ele>709.491</ele>
        <time>2023-01-11T23:59:06Z</time>
      </trkpt>
      <trkpt lat="36.875204" lon="-2.915723">
        <ele>697.859</ele>
        <time>2023-01-11T23:59:46Z</time>
      </trkpt>
      <trkpt lat="36.875060" lon="-2.916684">
        <ele>692.403</ele>
        <time>2023-01-11T23:59:56Z</time>
      </trkpt>
      <trkpt lat="36.874332" lon="-2.917054">
        <ele>692.423</ele>
        <time>2023-01-12T00:00:16Z</time>
      </trkpt>
      <trkpt lat="36.873461" lon="-2.916259">
        <ele>692.808</ele>
        <time>2023-01-12T00:00:36Z</time>
      </trkpt>
      <trkpt lat="36.874384" lon="-2.917108">
        <ele>692.654</ele>
        <time>2023-01-12T00:00:56Z</time>
      </trkpt>
      <trkpt lat="36.875021" lon="-2.916780">
        <ele>692.067</ele>
        <time>2023-01-12T00:01:16Z</time>
      </trkpt>
      <trkpt lat="36.875276" lon="-2.915762">
        <ele>693.810</ele>
        <time>2023-01-12T00:01:26Z</time>
      </trkpt>
      <trkpt lat="36.877297" lon="-2.917752">
        <ele>705.083</ele>
        <time>2023-01-12T00:02:16Z</time>
      </trkpt>
      <trkpt lat="36.877827" lon="-2.917606">
        <ele>708.467</ele>
        <time>2023-01-12T00:02:26Z</time>
      </trkpt>
      <trkpt lat="36.878425" lon="-2.918923">
        <ele>707.067</ele>
        <time>2023-01-12T00:02:46Z</time>
      </trkpt>
      <trkpt lat="36.880561" lon="-2.918853">
        <ele>709.275</ele>
        <time>2023-01-12T00:03:26Z</time>
      </trkpt>
      <trkpt lat="36.882240" lon="-2.920571">
        <ele>713.419</ele>
        <time>2023-01-12T00:04:16Z</time>
      </trkpt>
      <trkpt lat="36.880546" lon="-2.919983">
        <ele>701.834</ele>
        <time>2023-01-12T00:04:46Z</time>
      </trkpt>
      <trkpt lat="36.881694" lon="-2.922360">
        <ele>676.855</ele>
        <time>2023-01-12T00:05:26Z</time>
      </trkpt>
      <trkpt lat="36.877346" lon="-2.920430">
        <ele>653.810</ele>
        <time>2023-01-12T00:06:06Z</time>
      </trkpt>
      <trkpt lat="36.876208" lon="-2.921089">
        <ele>643.008</ele>
        <time>2023-01-12T00:06:16Z</time>
      </trkpt>
      <trkpt lat="36.874794" lon="-2.921188">
        <ele>631.842</ele>
        <time>2023-01-12T00:06:26Z</time>
      </trkpt>
      <trkpt lat="36.873912" lon="-2.922369">
        <ele>629.835</ele>
        <time>2023-01-12T00:06:36Z</time>
      </trkpt>
      <trkpt lat="36.873723" lon="-2.923642">
        <ele>618.888</ele>
        <time>2023-01-12T00:06:46Z</time>
      </trkpt>
      <trkpt lat="36.873354" lon="-2.923416">
        <ele>611.641</ele>
        <time>2023-01-12T00:06:56Z</time>
      </trkpt>
      <trkpt lat="36.871951" lon="-2.926080">
        <ele>633.645</ele>
        <time>2023-01-12T00:07:26Z</time>
      </trkpt>
      <trkpt lat="36.871588" lon="-2.925213">
        <ele>630.685</ele>
        <time>2023-01-12T00:07:36Z</time>
      </trkpt>
      <trkpt lat="36.870159" lon="-2.925031">
        <ele>617.013</ele>
        <time>2023-01-12T00:07:46Z</time>
      </trkpt>
      <trkpt lat="36.868143" lon="-2.926103">
        <ele>592.487</ele>
        <time>2023-01-12T00:07:56Z</time>
      </trkpt>
      <trkpt lat="36.866284" lon="-2.925566">
        <ele>568.271</ele>
        <time>2023-01-12T00:08:06Z</time>
      </trkpt>
      <trkpt lat="36.864556" lon="-2.926143">
        <ele>529.241</ele>
        <time>2023-01-12T00:08:46Z</time>
      </trkpt>
      <trkpt lat="36.864908" lon="-2.926894">
        <ele>521.615</ele>
        <time>2023-01-12T00:09:06Z</time>
      </trkpt>
      <trkpt lat="36.863435" lon="-2.927925">
        <ele>521.208</ele>
        <time>2023-01-12T00:09:26Z</time>
      </trkpt>
      <trkpt lat="36.864066" lon="-2.928395">
        <ele>524.856</ele>
        <time>2023-01-12T00:09:56Z</time>
      </trkpt>
      <trkpt lat="36.863681" lon="-2.929224">
        <ele>522.469</ele>
        <time>2023-01-12T00:10:06Z</time>
      </trkpt>
      <trkpt lat="36.864150" lon="-2.931073">
        <ele>516.072</ele>
        <time>2023-01-12T00:10:36Z</time>
      </trkpt>
      <trkpt lat="36.863592" lon="-2.931692">
        <ele>523.285</ele>
        <time>2023-01-12T00:10:56Z</time>
      </trkpt>
      <trkpt lat="36.861835" lon="-2.931528">
        <ele>538.819</ele>
        <time>2023-01-12T00:11:26Z</time>
      </trkpt>
      <trkpt lat="36.861745" lon="-2.930622">
        <ele>540.499</ele>
        <time>2023-01-12T00:11:46Z</time>
      </trkpt>
      <trkpt lat="36.861109" lon="-2.930292">
        <ele>530.057</ele>
        <time>2023-01-12T00:11:56Z</time>
      </trkpt>
      <trkpt lat="36.859684" lon="-2.930554">
        <ele>499.691</ele>
        <time>2023-01-12T00:12:06Z</time>
      </trkpt>
      <trkpt lat="36.858828" lon="-2.931537">
        <ele>492.243</ele>
        <time>2023-01-12T00:12:26Z</time>
      </trkpt>
      <trkpt lat="36.857672" lon="-2.930884">
        <ele>462.864</ele>
        <time>2023-01-12T00:12:46Z</time>
      </trkpt>
      <trkpt lat="36.854797" lon="-2.932957">
        <ele>433.610</ele>
        <time>2023-01-12T00:13:36Z</time>
      </trkpt>
      <trkpt lat="36.854563" lon="-2.932223">
        <ele>428.608</ele>
        <time>2023-01-12T00:13:46Z</time>
      </trkpt>
      <trkpt lat="36.854965" lon="-2.931683">
        <ele>424.483</ele>
        <time>2023-01-12T00:14:06Z</time>
      </trkpt>
      <trkpt lat="36.854985" lon="-2.930495">
        <ele>417.066</ele>
        <time>2023-01-12T00:14:16Z</time>
      </trkpt>
      <trkpt lat="36.854224" lon="-2.929600">
        <ele>412.699</ele>
        <time>2023-01-12T00:14:36Z</time>
      </trkpt>
      <trkpt lat="36.852796" lon="-2.930904">
        <ele>405.482</ele>
        <time>2023-01-12T00:15:06Z</time>
      </trkpt>
      <trkpt lat="36.853090" lon="-2.930087">
        <ele>396.476</ele>
        <time>2023-01-12T00:15:26Z</time>
      </trkpt>
      <trkpt lat="36.851689" lon="-2.930925">
        <ele>395.086</ele>
        <time>2023-01-12T00:15:46Z</time>
      </trkpt>
      <trkpt lat="36.848784" lon="-2.931364">
        <ele>384.484</ele>
        <time>2023-01-12T00:16:26Z</time>
      </trkpt>
      <trkpt lat="36.848616" lon="-2.932565">
        <ele>381.258</ele>
        <time>2023-01-12T00:16:36Z</time>
      </trkpt>
      <trkpt lat="36.846599" lon="-2.934897">
        <ele>368.485</ele>
        <time>2023-01-12T00:16:46Z</time>
      </trkpt>
      <trkpt lat="36.846191" lon="-2.936431">
        <ele>364.889</ele>
        <time>2023-01-12T00:16:56Z</time>
      </trkpt>
      <trkpt lat="36.845140" lon="-2.936670">
        <ele>358.417</ele>
        <time>2023-01-12T00:17:06Z</time>
      </trkpt>
      <trkpt lat="36.843369" lon="-2.939175">
        <ele>342.808</ele>
        <time>2023-01-12T00:17:26Z</time>
      </trkpt>
      <trkpt lat="36.841777" lon="-2.939030">
        <ele>338.087</ele>
        <time>2023-01-12T00:17:36Z</time>
      </trkpt>
      <trkpt lat="36.839302" lon="-2.940192">
        <ele>325.840</ele>
        <time>2023-01-12T00:17:56Z</time>
      </trkpt>
      <trkpt lat="36.838969" lon="-2.941519">
        <ele>323.013</ele>
        <time>2023-01-12T00:18:06Z</time>
      </trkpt>
      <trkpt lat="36.840708" lon="-2.944296">
        <ele>314.856</ele>
        <time>2023-01-12T00:18:16Z</time>
      </trkpt>
      <trkpt lat="36.840323" lon="-2.943609">
        <ele>319.491</ele>
        <time>2022-05-07T08:02:02Z</time>
      </trkpt>
      <trkpt lat="36.840871" lon="-2.944473">
        <ele>318.681</ele>
        <time>2022-05-07T08:03:04Z</time>
      </trkpt>
      <trkpt lat="36.842159" lon="-2.945967">
        <ele>321.819</ele>
        <time>2022-05-07T08:03:56Z</time>
      </trkpt>
      <trkpt lat="36.844407" lon="-2.947619">
        <ele>334.409</ele>
        <time>2022-05-07T08:05:32Z</time>
      </trkpt>
      <trkpt lat="36.846268" lon="-2.948680">
        <ele>339.420</ele>
        <time>2022-05-07T08:06:28Z</time>
      </trkpt>
      <trkpt lat="36.846168" lon="-2.949249">
        <ele>338.869</ele>
        <time>2022-05-07T08:06:40Z</time>
      </trkpt>
      <trkpt lat="36.846334" lon="-2.949776">
        <ele>337.271</ele>
        <time>2022-05-07T08:06:50Z</time>
      </trkpt>
      <trkpt lat="36.847623" lon="-2.950427">
        <ele>338.439</ele>
        <time>2022-05-07T08:07:21Z</time>
      </trkpt>
      <trkpt lat="36.849719" lon="-2.952269">
        <ele>345.871</ele>
        <time>2022-05-07T08:08:15Z</time>
      </trkpt>
      <trkpt lat="36.851182" lon="-2.952801">
        <ele>356.677</ele>
        <time>2022-05-07T08:08:58Z</time>
      </trkpt>
      <trkpt lat="36.852170" lon="-2.952672">
        <ele>358.696</ele>
        <time>2022-05-07T08:09:27Z</time>
      </trkpt>
      <trkpt lat="36.852538" lon="-2.952225">
        <ele>362.228</ele>
        <time>2022-05-07T08:09:49Z</time>
      </trkpt>
      <trkpt lat="36.853499" lon="-2.951617">
        <ele>369.648</ele>
        <time>2022-05-07T08:10:32Z</time>
      </trkpt>
      <trkpt lat="36.853817" lon="-2.951877">
        <ele>373.412</ele>
        <time>2022-05-07T08:10:53Z</time>
      </trkpt>
      <trkpt lat="36.855446" lon="-2.950643">
        <ele>383.432</ele>
        <time>2022-05-07T08:12:01Z</time>
      </trkpt>
      <trkpt lat="36.858424" lon="-2.947354">
        <ele>412.005</ele>
        <time>2022-05-07T08:14:36Z</time>
      </trkpt>
      <trkpt lat="36.859878" lon="-2.945510">
        <ele>427.609</ele>
        <time>2022-05-07T08:16:02Z</time>
      </trkpt>
      <trkpt lat="36.860418" lon="-2.944453">
        <ele>435.292</ele>
        <time>2022-05-07T08:16:43Z</time>
      </trkpt>
      <trkpt lat="36.864716" lon="-2.938769">
        <ele>477.431</ele>
        <time>2022-05-07T08:20:47Z</time>
      </trkpt>
      <trkpt lat="36.865622" lon="-2.938724">
        <ele>485.213</ele>
        <time>2022-05-07T08:21:24Z</time>
      </trkpt>
      <trkpt lat="36.865960" lon="-2.938404">
        <ele>489.881</ele>
        <time>2022-05-07T08:21:46Z</time>
      </trkpt>
      <trkpt lat="36.866591" lon="-2.938286">
        <ele>495.273</ele>
        <time>2022-05-07T08:22:17Z</time>
      </trkpt>
      <trkpt lat="36.866902" lon="-2.937761">
        <ele>500.229</ele>
        <time>2022-05-07T08:22:43Z</time>
      </trkpt>
      <trkpt lat="36.869269" lon="-2.935780">
        <ele>526.238</ele>
        <time>2022-05-07T08:25:08Z</time>
      </trkpt>
      <trkpt lat="36.870802" lon="-2.935302">
        <ele>536.850</ele>
        <time>2022-05-07T08:26:20Z</time>
      </trkpt>
      <trkpt lat="36.871497" lon="-2.934551">
        <ele>545.830</ele>
        <time>2022-05-07T08:27:05Z</time>
      </trkpt>
      <trkpt lat="36.873007" lon="-2.933964">
        <ele>559.079</ele>
        <time>2022-05-07T08:28:32Z</time>
      </trkpt>
      <trkpt lat="36.876088" lon="-2.931850">
        <ele>593.405</ele>
        <time>2022-05-07T08:31:59Z</time>
      </trkpt>
      <trkpt lat="36.878053" lon="-2.929564">
        <ele>619.825</ele>
        <time>2022-05-07T08:34:39Z</time>
      </trkpt>
      <trkpt lat="36.878479" lon="-2.929426">
        <ele>623.609</ele>
        <time>2022-05-07T08:35:05Z</time>
      </trkpt>
      <trkpt lat="36.879287" lon="-2.929626">
        <ele>631.278</ele>
        <time>2022-05-07T08:35:54Z</time>
      </trkpt>
      <trkpt lat="36.879688" lon="-2.929504">
        <ele>635.287</ele>
        <time>2022-05-07T08:36:20Z</time>
      </trkpt>
      <trkpt lat="36.880321" lon="-2.928814">
        <ele>643.489</ele>
        <time>2022-05-07T08:37:12Z</time>
      </trkpt>
      <trkpt lat="36.882125" lon="-2.927800">
        <ele>662.447</ele>
        <time>2022-05-07T08:39:12Z</time>
      </trkpt>
      <trkpt lat="36.882838" lon="-2.927579">
        <ele>668.299</ele>
        <time>2022-05-07T08:39:53Z</time>
      </trkpt>
      <trkpt lat="36.882909" lon="-2.927322">
        <ele>668.875</ele>
        <time>2022-05-07T08:40:04Z</time>
      </trkpt>
      <trkpt lat="36.882550" lon="-2.927178">
        <ele>669.824</ele>
        <time>2022-05-07T08:40:18Z</time>
      </trkpt>
      <trkpt lat="36.883028" lon="-2.926849">
        <ele>676.216</ele>
        <time>2022-05-07T08:40:53Z</time>
      </trkpt>
      <trkpt lat="36.882937" lon="-2.925789">
        <ele>681.036</ele>
        <time>2022-05-07T08:41:35Z</time>
      </trkpt>
      <trkpt lat="36.882367" lon="-2.925172">
        <ele>681.497</ele>
        <time>2022-05-07T08:41:58Z</time>
      </trkpt>
      <trkpt lat="36.882037" lon="-2.924000">
        <ele>684.623</ele>
        <time>2022-05-07T08:42:25Z</time>
      </trkpt>
      <trkpt lat="36.881811" lon="-2.922339">
        <ele>683.625</ele>
        <time>2022-05-07T08:42:57Z</time>
      </trkpt>
      <trkpt lat="36.881197" lon="-2.921205">
        <ele>688.009</ele>
        <time>2022-05-07T08:43:32Z</time>
      </trkpt>
      <trkpt lat="36.881020" lon="-2.920583">
        <ele>692.480</ele>
        <time>2022-05-07T08:43:58Z</time>
      </trkpt>
      <trkpt lat="36.880558" lon="-2.920256">
        <ele>697.289</ele>
        <time>2022-05-07T08:44:25Z</time>
      </trkpt>
      <trkpt lat="36.880510" lon="-2.919997">
        <ele>699.281</ele>
        <time>2022-05-07T08:44:37Z</time>
      </trkpt>
      <trkpt lat="36.880906" lon="-2.919896">
        <ele>702.449</ele>
        <time>2022-05-07T08:44:57Z</time>
      </trkpt>
      <trkpt lat="36.881384" lon="-2.920022">
        <ele>706.851</ele>
        <time>2022-05-07T08:45:22Z</time>
      </trkpt>
      <trkpt lat="36.882265" lon="-2.920535">
        <ele>715.457</ele>
        <time>2022-05-07T08:46:13Z</time>
      </trkpt>
      <trkpt lat="36.881807" lon="-2.919733">
        <ele>723.216</ele>
        <time>2022-05-07T08:46:57Z</time>
      </trkpt>
      <trkpt lat="36.881468" lon="-2.919429">
        <ele>727.078</ele>
        <time>2022-05-07T08:47:20Z</time>
      </trkpt>
      <trkpt lat="36.882003" lon="-2.919537">
        <ele>732.248</ele>
        <time>2022-05-07T08:47:54Z</time>
      </trkpt>
      <trkpt lat="36.882281" lon="-2.919783">
        <ele>735.059</ele>
        <time>2022-05-07T08:48:13Z</time>
      </trkpt>
      <trkpt lat="36.882817" lon="-2.919669">
        <ele>739.803</ele>
        <time>2022-05-07T08:48:45Z</time>
      </trkpt>
      <trkpt lat="36.883038" lon="-2.919871">
        <ele>742.023</ele>
        <time>2022-05-07T08:49:01Z</time>
      </trkpt>
      <trkpt lat="36.883376" lon="-2.920994">
        <ele>745.009</ele>
        <time>2022-05-07T08:49:43Z</time>
      </trkpt>
      <trkpt lat="36.884325" lon="-2.921745">
        <ele>745.636</ele>
        <time>2022-05-07T08:50:17Z</time>
      </trkpt>
      <trkpt lat="36.884959" lon="-2.921915">
        <ele>749.445</ele>
        <time>2022-05-07T08:50:43Z</time>
      </trkpt>
      <trkpt lat="36.885573" lon="-2.922456">
        <ele>756.277</ele>
        <time>2022-05-07T08:51:19Z</time>
      </trkpt>
      <trkpt lat="36.885946" lon="-2.922391">
        <ele>760.825</ele>
        <time>2022-05-07T08:51:40Z</time>
      </trkpt>
      <trkpt lat="36.886696" lon="-2.922583">
        <ele>768.017</ele>
        <time>2022-05-07T08:52:28Z</time>
      </trkpt>
      <trkpt lat="36.886833" lon="-2.921811">
        <ele>772.073</ele>
        <time>2022-05-07T08:53:03Z</time>
      </trkpt>
      <trkpt lat="36.886440" lon="-2.920651">
        <ele>778.282</ele>
        <time>2022-05-07T08:53:54Z</time>
      </trkpt>
      <trkpt lat="36.886458" lon="-2.920053">
        <ele>781.484</ele>
        <time>2022-05-07T08:54:21Z</time>
      </trkpt>
      <trkpt lat="36.886721" lon="-2.919888">
        <ele>783.474</ele>
        <time>2022-05-07T08:54:36Z</time>
      </trkpt>
      <trkpt lat="36.887305" lon="-2.920235">
        <ele>785.898</ele>
        <time>2022-05-07T08:55:06Z</time>
      </trkpt>
      <trkpt lat="36.887620" lon="-2.920135">
        <ele>787.015</ele>
        <time>2022-05-07T08:55:20Z</time>
      </trkpt>
      <trkpt lat="36.887491" lon="-2.918877">
        <ele>788.226</ele>
        <time>2022-05-07T08:55:57Z</time>
      </trkpt>
      <trkpt lat="36.887755" lon="-2.918678">
        <ele>787.209</ele>
        <time>2022-05-07T08:56:04Z</time>
      </trkpt>
      <trkpt lat="36.888535" lon="-2.920135">
        <ele>794.680</ele>
        <time>2022-05-07T08:56:49Z</time>
      </trkpt>
      <trkpt lat="36.888623" lon="-2.920812">
        <ele>795.699</ele>
        <time>2022-05-07T08:57:05Z</time>
      </trkpt>
      <trkpt lat="36.888373" lon="-2.922180">
        <ele>794.491</ele>
        <time>2022-05-07T08:57:29Z</time>
      </trkpt>
      <trkpt lat="36.888916" lon="-2.922765">
        <ele>803.029</ele>
        <time>2022-05-07T08:58:09Z</time>
      </trkpt>
      <trkpt lat="36.889030" lon="-2.923435">
        <ele>807.661</ele>
        <time>2022-05-07T08:58:40Z</time>
      </trkpt>
      <trkpt lat="36.889451" lon="-2.923844">
        <ele>815.247</ele>
        <time>2022-05-07T08:59:21Z</time>
      </trkpt>
      <trkpt lat="36.889886" lon="-2.924006">
        <ele>821.616</ele>
        <time>2022-05-07T08:59:58Z</time>
      </trkpt>
      <trkpt lat="36.890530" lon="-2.924005">
        <ele>829.088</ele>
        <time>2022-05-07T09:00:48Z</time>
      </trkpt>
      <trkpt lat="36.890642" lon="-2.924625">
        <ele>833.448</ele>
        <time>2022-05-07T09:01:23Z</time>
      </trkpt>
      <trkpt lat="36.891416" lon="-2.925264">
        <ele>844.066</ele>
        <time>2022-05-07T09:02:30Z</time>
      </trkpt>
      <trkpt lat="36.891626" lon="-2.925211">
        <ele>846.229</ele>
        <time>2022-05-07T09:02:47Z</time>
      </trkpt>
      <trkpt lat="36.892021" lon="-2.924450">
        <ele>853.821</ele>
        <time>2022-05-07T09:03:43Z</time>
      </trkpt>
      <trkpt lat="36.892436" lon="-2.924161">
        <ele>859.009</ele>
        <time>2022-05-07T09:04:22Z</time>
      </trkpt>
      <trkpt lat="36.893528" lon="-2.925187">
        <ele>870.847</ele>
        <time>2022-05-07T09:05:58Z</time>
      </trkpt>
      <trkpt lat="36.894011" lon="-2.925255">
        <ele>875.266</ele>
        <time>2022-05-07T09:08:19Z</time>
      </trkpt>
      <trkpt lat="36.894859" lon="-2.925087">
        <ele>883.298</ele>
        <time>2022-05-07T09:09:10Z</time>
      </trkpt>
      <trkpt lat="36.894917" lon="-2.925260">
        <ele>884.246</ele>
        <time>2022-05-07T09:09:18Z</time>
      </trkpt>
      <trkpt lat="36.894586" lon="-2.925932">
        <ele>886.438</ele>
        <time>2022-05-07T09:09:44Z</time>
      </trkpt>
      <trkpt lat="36.894586" lon="-2.926523">
        <ele>889.214</ele>
        <time>2022-05-07T09:10:03Z</time>
      </trkpt>
      <trkpt lat="36.894732" lon="-2.926668">
        <ele>890.263</ele>
        <time>2022-05-07T09:10:11Z</time>
      </trkpt>
      <trkpt lat="36.895471" lon="-2.926688">
        <ele>892.295</ele>
        <time>2022-05-07T09:10:40Z</time>
      </trkpt>
      <trkpt lat="36.895546" lon="-2.927108">
        <ele>892.635</ele>
        <time>2022-05-07T09:10:51Z</time>
      </trkpt>
      <trkpt lat="36.896194" lon="-2.928376">
        <ele>895.845</ele>
        <time>2022-05-07T09:11:28Z</time>
      </trkpt>
      <trkpt lat="36.896800" lon="-2.928487">
        <ele>898.847</ele>
        <time>2022-05-07T09:11:49Z</time>
      </trkpt>
      <trkpt lat="36.897522" lon="-2.928879">
        <ele>900.611</ele>
        <time>2022-05-07T09:12:15Z</time>
      </trkpt>
      <trkpt lat="36.898049" lon="-2.928765">
        <ele>901.009</ele>
        <time>2022-05-07T09:12:30Z</time>
      </trkpt>
      <trkpt lat="36.898988" lon="-2.928913">
        <ele>904.625</ele>
        <time>2022-05-07T09:12:59Z</time>
      </trkpt>
      <trkpt lat="36.899710" lon="-2.928157">
        <ele>909.854</ele>
        <time>2022-05-07T09:13:32Z</time>
      </trkpt>
      <trkpt lat="36.900039" lon="-2.928295">
        <ele>911.426</ele>
        <time>2022-05-07T09:13:43Z</time>
      </trkpt>
      <trkpt lat="36.900544" lon="-2.927943">
        <ele>913.894</ele>
        <time>2022-05-07T09:14:04Z</time>
      </trkpt>
      <trkpt lat="36.900856" lon="-2.928421">
        <ele>915.626</ele>
        <time>2022-05-07T09:14:21Z</time>
      </trkpt>
      <trkpt lat="36.901155" lon="-2.928492">
        <ele>917.412</ele>
        <time>2022-05-07T09:14:33Z</time>
      </trkpt>
      <trkpt lat="36.902268" lon="-2.927964">
        <ele>918.691</ele>
        <time>2022-05-07T09:15:10Z</time>
      </trkpt>
      <trkpt lat="36.903317" lon="-2.926965">
        <ele>916.893</ele>
        <time>2022-05-07T09:15:43Z</time>
      </trkpt>
      <trkpt lat="36.903941" lon="-2.926951">
        <ele>915.693</ele>
        <time>2022-05-07T09:16:02Z</time>
      </trkpt>
      <trkpt lat="36.903529" lon="-2.927824">
        <ele>919.672</ele>
        <time>2022-05-07T09:16:28Z</time>
      </trkpt>
      <trkpt lat="36.903321" lon="-2.929112">
        <ele>925.213</ele>
        <time>2022-05-07T09:17:01Z</time>
      </trkpt>
      <trkpt lat="36.903424" lon="-2.929231">
        <ele>926.414</ele>
        <time>2022-05-07T09:17:07Z</time>
      </trkpt>
      <trkpt lat="36.904179" lon="-2.928916">
        <ele>929.409</ele>
        <time>2022-05-07T09:17:34Z</time>
      </trkpt>
      <trkpt lat="36.904711" lon="-2.928990">
        <ele>930.818</ele>
        <time>2022-05-07T09:17:52Z</time>
      </trkpt>
      <trkpt lat="36.904828" lon="-2.929185">
        <ele>931.617</ele>
        <time>2022-05-07T09:18:00Z</time>
      </trkpt>
      <trkpt lat="36.904316" lon="-2.929756">
        <ele>934.249</ele>
        <time>2022-05-07T09:18:22Z</time>
      </trkpt>
      <trkpt lat="36.904298" lon="-2.930424">
        <ele>937.047</ele>
        <time>2022-05-07T09:18:41Z</time>
      </trkpt>
      <trkpt lat="36.905168" lon="-2.931108">
        <ele>939.249</ele>
        <time>2022-05-07T09:19:13Z</time>
      </trkpt>
      <trkpt lat="36.905874" lon="-2.931338">
        <ele>940.475</ele>
        <time>2022-05-07T09:19:32Z</time>
      </trkpt>
      <trkpt lat="36.906726" lon="-2.930799">
        <ele>950.624</ele>
        <time>2022-05-07T09:20:22Z</time>
      </trkpt>
      <trkpt lat="36.907518" lon="-2.929798">
        <ele>959.616</ele>
        <time>2022-05-07T09:21:26Z</time>
      </trkpt>
      <trkpt lat="36.908143" lon="-2.930337">
        <ele>966.246</ele>
        <time>2022-05-07T09:22:07Z</time>
      </trkpt>
      <trkpt lat="36.908477" lon="-2.930446">
        <ele>969.874</ele>
        <time>2022-05-07T09:22:29Z</time>
      </trkpt>
      <trkpt lat="36.908945" lon="-2.929756">
        <ele>977.456</ele>
        <time>2022-05-07T09:23:18Z</time>
      </trkpt>
      <trkpt lat="36.909805" lon="-2.928847">
        <ele>990.221</ele>
        <time>2022-05-07T09:24:48Z</time>
      </trkpt>
      <trkpt lat="36.909962" lon="-2.928851">
        <ele>991.609</ele>
        <time>2022-05-07T09:25:00Z</time>
      </trkpt>
      <trkpt lat="36.910206" lon="-2.929702">
        <ele>991.818</ele>
        <time>2022-05-07T09:25:26Z</time>
      </trkpt>
      <trkpt lat="36.910204" lon="-2.930743">
        <ele>991.237</ele>
        <time>2022-05-07T09:25:48Z</time>
      </trkpt>
      <trkpt lat="36.910939" lon="-2.931358">
        <ele>991.889</ele>
        <time>2022-05-07T09:26:09Z</time>
      </trkpt>
      <trkpt lat="36.911379" lon="-2.931989">
        <ele>991.457</ele>
        <time>2022-05-07T09:26:25Z</time>
      </trkpt>
      <trkpt lat="36.910569" lon="-2.932505">
        <ele>988.269</ele>
        <time>2022-05-07T09:26:44Z</time>
      </trkpt>
      <trkpt lat="36.910317" lon="-2.932827">
        <ele>987.055</ele>
        <time>2022-05-07T09:26:50Z</time>
      </trkpt>
      <trkpt lat="36.910536" lon="-2.934152">
        <ele>986.294</ele>
        <time>2022-05-07T09:27:17Z</time>
      </trkpt>
      <trkpt lat="36.910341" lon="-2.935477">
        <ele>985.086</ele>
        <time>2022-05-07T09:27:41Z</time>
      </trkpt>
      <trkpt lat="36.910596" lon="-2.936198">
        <ele>982.636</ele>
        <time>2022-05-07T09:27:53Z</time>
      </trkpt>
      <trkpt lat="36.910906" lon="-2.936440">
        <ele>981.697</ele>
        <time>2022-05-07T09:28:00Z</time>
      </trkpt>
      <trkpt lat="36.911425" lon="-2.936562">
        <ele>979.623</ele>
        <time>2022-05-07T09:28:09Z</time>
      </trkpt>
      <trkpt lat="36.912535" lon="-2.937691">
        <ele>975.225</ele>
        <time>2022-05-07T09:28:30Z</time>
      </trkpt>
      <trkpt lat="36.913181" lon="-2.938014">
        <ele>973.209</ele>
        <time>2022-05-07T09:28:40Z</time>
      </trkpt>
      <trkpt lat="36.913816" lon="-2.937966">
        <ele>971.080</ele>
        <time>2022-05-07T09:28:50Z</time>
      </trkpt>
      <trkpt lat="36.914008" lon="-2.937164">
        <ele>970.269</ele>
        <time>2022-05-07T09:29:04Z</time>
      </trkpt>
      <trkpt lat="36.914542" lon="-2.937122">
        <ele>968.881</ele>
        <time>2022-05-07T09:29:14Z</time>
      </trkpt>
      <trkpt lat="36.915086" lon="-2.936782">
        <ele>967.439</ele>
        <time>2022-05-07T09:29:26Z</time>
      </trkpt>
      <trkpt lat="36.915139" lon="-2.937828">
        <ele>965.081</ele>
        <time>2022-05-07T09:29:42Z</time>
      </trkpt>
      <trkpt lat="36.915372" lon="-2.938459">
        <ele>963.087</ele>
        <time>2022-05-07T09:29:52Z</time>
      </trkpt>
      <trkpt lat="36.915674" lon="-2.938299">
        <ele>962.286</ele>
        <time>2022-05-07T09:29:59Z</time>
      </trkpt>
      <trkpt lat="36.916186" lon="-2.937679">
        <ele>960.498</ele>
        <time>2022-05-07T09:30:12Z</time>
      </trkpt>
      <trkpt lat="36.916501" lon="-2.936542">
        <ele>957.288</ele>
        <time>2022-05-07T09:30:29Z</time>
      </trkpt>
      <trkpt lat="36.916639" lon="-2.936466">
        <ele>957.098</ele>
        <time>2022-05-07T09:30:33Z</time>
      </trkpt>
      <trkpt lat="36.916932" lon="-2.938733">
        <ele>964.615</ele>
        <time>2022-05-07T09:31:25Z</time>
      </trkpt>
      <trkpt lat="36.917325" lon="-2.939861">
        <ele>969.026</ele>
        <time>2022-05-07T09:31:57Z</time>
      </trkpt>
      <trkpt lat="36.917990" lon="-2.939554">
        <ele>971.009</ele>
        <time>2022-05-07T09:32:21Z</time>
      </trkpt>
      <trkpt lat="36.918497" lon="-2.940061">
        <ele>972.620</ele>
        <time>2022-05-07T09:32:39Z</time>
      </trkpt>
      <trkpt lat="36.918948" lon="-2.940099">
        <ele>973.679</ele>
        <time>2022-05-07T09:32:50Z</time>
      </trkpt>
      <trkpt lat="36.919298" lon="-2.939947">
        <ele>974.651</ele>
        <time>2022-05-07T09:32:59Z</time>
      </trkpt>
      <trkpt lat="36.920891" lon="-2.939768">
        <ele>979.249</ele>
        <time>2022-05-07T09:39:30Z</time>
      </trkpt>
      <trkpt lat="36.921133" lon="-2.939609">
        <ele>980.071</ele>
        <time>2022-05-07T09:39:37Z</time>
      </trkpt>
      <trkpt lat="36.921560" lon="-2.938739">
        <ele>982.697</ele>
        <time>2022-05-07T09:39:59Z</time>
      </trkpt>
      <trkpt lat="36.921781" lon="-2.936462">
        <ele>987.286</ele>
        <time>2022-05-07T09:40:50Z</time>
      </trkpt>
      <trkpt lat="36.922087" lon="-2.935161">
        <ele>990.638</ele>
        <time>2022-05-07T09:41:18Z</time>
      </trkpt>
      <trkpt lat="36.922497" lon="-2.934477">
        <ele>993.248</ele>
        <time>2022-05-07T09:41:38Z</time>
      </trkpt>
      <trkpt lat="36.922907" lon="-2.932745">
        <ele>996.418</ele>
        <time>2022-05-07T09:42:21Z</time>
      </trkpt>
      <trkpt lat="36.923215" lon="-2.933590">
        <ele>1001.098</ele>
        <time>2022-05-07T09:42:45Z</time>
      </trkpt>
      <trkpt lat="36.923576" lon="-2.933737">
        <ele>1004.217</ele>
        <time>2022-05-07T09:43:02Z</time>
      </trkpt>
      <trkpt lat="36.923821" lon="-2.934264">
        <ele>1008.609</ele>
        <time>2022-05-07T09:43:22Z</time>
      </trkpt>
      <trkpt lat="36.924498" lon="-2.934709">
        <ele>1014.032</ele>
        <time>2022-05-07T09:43:57Z</time>
      </trkpt>
      <trkpt lat="36.924943" lon="-2.934624">
        <ele>1018.841</ele>
        <time>2022-05-07T09:44:25Z</time>
      </trkpt>
      <trkpt lat="36.925860" lon="-2.936376">
        <ele>1031.073</ele>
        <time>2022-05-07T09:45:46Z</time>
      </trkpt>
      <trkpt lat="36.926059" lon="-2.937483">
        <ele>1038.491</ele>
        <time>2022-05-07T09:46:31Z</time>
      </trkpt>
      <trkpt lat="36.926318" lon="-2.937957">
        <ele>1041.663</ele>
        <time>2022-05-07T09:46:54Z</time>
      </trkpt>
      <trkpt lat="36.926004" lon="-2.938775">
        <ele>1047.619</ele>
        <time>2022-05-07T09:47:32Z</time>
      </trkpt>
      <trkpt lat="36.926000" lon="-2.939045">
        <ele>1049.428</ele>
        <time>2022-05-07T09:47:44Z</time>
      </trkpt>
      <trkpt lat="36.926687" lon="-2.938709">
        <ele>1056.020</ele>
        <time>2022-05-07T09:48:27Z</time>
      </trkpt>
      <trkpt lat="36.926906" lon="-2.938070">
        <ele>1061.460</ele>
        <time>2022-05-07T09:48:57Z</time>
      </trkpt>
      <trkpt lat="36.927884" lon="-2.936964">
        <ele>1075.651</ele>
        <time>2022-05-07T09:50:26Z</time>
      </trkpt>
      <trkpt lat="36.928367" lon="-2.936842">
        <ele>1080.201</ele>
        <time>2022-05-07T09:50:58Z</time>
      </trkpt>
      <trkpt lat="36.929077" lon="-2.936074">
        <ele>1090.011</ele>
        <time>2022-05-07T09:52:00Z</time>
      </trkpt>
      <trkpt lat="36.929356" lon="-2.936125">
        <ele>1091.009</ele>
        <time>2022-05-07T09:52:14Z</time>
      </trkpt>
      <trkpt lat="36.929406" lon="-2.936587">
        <ele>1091.266</ele>
        <time>2022-05-07T09:52:25Z</time>
      </trkpt>
      <trkpt lat="36.929570" lon="-2.936737">
        <ele>1091.885</ele>
        <time>2022-05-07T09:52:31Z</time>
      </trkpt>
      <trkpt lat="36.930641" lon="-2.936548">
        <ele>1099.277</ele>
        <time>2022-05-07T09:53:09Z</time>
      </trkpt>
      <trkpt lat="36.931233" lon="-2.936701">
        <ele>1101.045</ele>
        <time>2022-05-07T09:53:31Z</time>
      </trkpt>
      <trkpt lat="36.931801" lon="-2.936483">
        <ele>1102.637</ele>
        <time>2022-05-07T09:53:49Z</time>
      </trkpt>
      <trkpt lat="36.932281" lon="-2.935967">
        <ele>1104.433</ele>
        <time>2022-05-07T09:54:06Z</time>
      </trkpt>
      <trkpt lat="36.932476" lon="-2.935346">
        <ele>1105.882</ele>
        <time>2022-05-07T09:54:19Z</time>
      </trkpt>
      <trkpt lat="36.932853" lon="-2.935001">
        <ele>1106.694</ele>
        <time>2022-05-07T09:54:31Z</time>
      </trkpt>
      <trkpt lat="36.932858" lon="-2.934374">
        <ele>1107.264</ele>
        <time>2022-05-07T09:54:45Z</time>
      </trkpt>
      <trkpt lat="36.933254" lon="-2.934506">
        <ele>1109.055</ele>
        <time>2022-05-07T09:54:57Z</time>
      </trkpt>
      <trkpt lat="36.933298" lon="-2.935709">
        <ele>1112.807</ele>
        <time>2022-05-07T09:55:25Z</time>
      </trkpt>
      <trkpt lat="36.933555" lon="-2.936246">
        <ele>1111.417</ele>
        <time>2022-05-07T09:55:55Z</time>
      </trkpt>
      <trkpt lat="36.934414" lon="-2.937149">
        <ele>1108.009</ele>
        <time>2022-05-07T09:56:17Z</time>
      </trkpt>
      <trkpt lat="36.935167" lon="-2.937581">
        <ele>1105.656</ele>
        <time>2022-05-07T09:56:31Z</time>
      </trkpt>
      <trkpt lat="36.935337" lon="-2.936961">
        <ele>1108.465</ele>
        <time>2022-05-07T09:56:46Z</time>
      </trkpt>
      <trkpt lat="36.935710" lon="-2.937250">
        <ele>1109.467</ele>
        <time>2022-05-07T09:56:59Z</time>
      </trkpt>
      <trkpt lat="36.936219" lon="-2.937401">
        <ele>1110.425</ele>
        <time>2022-05-07T09:57:13Z</time>
      </trkpt>
      <trkpt lat="36.937073" lon="-2.937334">
        <ele>1114.077</ele>
        <time>2022-05-07T09:57:44Z</time>
      </trkpt>
      <trkpt lat="36.938268" lon="-2.934824">
        <ele>1120.423</ele>
        <time>2022-05-07T10:00:45Z</time>
      </trkpt>
      <trkpt lat="36.937660" lon="-2.934792">
        <ele>1126.222</ele>
        <time>2022-05-07T10:01:16Z</time>
      </trkpt>
      <trkpt lat="36.937437" lon="-2.934237">
        <ele>1131.254</ele>
        <time>2022-05-07T10:01:45Z</time>
      </trkpt>
      <trkpt lat="36.936133" lon="-2.932890">
        <ele>1142.684</ele>
        <time>2022-05-07T10:03:08Z</time>
      </trkpt>
      <trkpt lat="36.937258" lon="-2.931854">
        <ele>1153.656</ele>
        <time>2022-05-07T10:04:27Z</time>
      </trkpt>
      <trkpt lat="36.937350" lon="-2.931629">
        <ele>1155.859</ele>
        <time>2022-05-07T10:04:40Z</time>
      </trkpt>
      <trkpt lat="36.936566" lon="-2.932035">
        <ele>1160.214</ele>
        <time>2022-05-07T10:05:20Z</time>
      </trkpt>
      <trkpt lat="36.935565" lon="-2.931190">
        <ele>1167.809</ele>
        <time>2022-05-07T10:06:10Z</time>
      </trkpt>
      <trkpt lat="36.935124" lon="-2.930989">
        <ele>1172.016</ele>
        <time>2022-05-07T10:06:35Z</time>
      </trkpt>
      <trkpt lat="36.935239" lon="-2.930854">
        <ele>1174.095</ele>
        <time>2022-05-07T10:06:45Z</time>
      </trkpt>
      <trkpt lat="36.936712" lon="-2.931006">
        <ele>1179.857</ele>
        <time>2022-05-07T10:07:38Z</time>
      </trkpt>
      <trkpt lat="36.937163" lon="-2.930526">
        <ele>1184.065</ele>
        <time>2022-05-07T10:08:01Z</time>
      </trkpt>
      <trkpt lat="36.937106" lon="-2.930426">
        <ele>1185.667</ele>
        <time>2022-05-07T10:08:08Z</time>
      </trkpt>
      <trkpt lat="36.936790" lon="-2.930581">
        <ele>1188.463</ele>
        <time>2022-05-07T10:08:26Z</time>
      </trkpt>
      <trkpt lat="36.936124" lon="-2.930415">
        <ele>1192.072</ele>
        <time>2022-05-07T10:08:58Z</time>
      </trkpt>
      <trkpt lat="36.935597" lon="-2.929955">
        <ele>1195.644</ele>
        <time>2022-05-07T10:09:27Z</time>
      </trkpt>
      <trkpt lat="36.935674" lon="-2.929790">
        <ele>1197.464</ele>
        <time>2022-05-07T10:09:37Z</time>
      </trkpt>
      <trkpt lat="36.936387" lon="-2.929963">
        <ele>1201.278</ele>
        <time>2022-05-07T10:10:09Z</time>
      </trkpt>
      <trkpt lat="36.936900" lon="-2.929414">
        <ele>1205.833</ele>
        <time>2022-05-07T10:10:38Z</time>
      </trkpt>
      <trkpt lat="36.936370" lon="-2.929596">
        <ele>1209.426</ele>
        <time>2022-05-07T10:11:03Z</time>
      </trkpt>
      <trkpt lat="36.936152" lon="-2.929523">
        <ele>1211.009</ele>
        <time>2022-05-07T10:11:15Z</time>
      </trkpt>
      <trkpt lat="36.936520" lon="-2.928972">
        <ele>1217.418</ele>
        <time>2022-05-07T10:11:56Z</time>
      </trkpt>
      <trkpt lat="36.936092" lon="-2.929029">
        <ele>1221.237</ele>
        <time>2022-05-07T10:12:28Z</time>
      </trkpt>
      <trkpt lat="36.936048" lon="-2.928908">
        <ele>1222.249</ele>
        <time>2022-05-07T10:12:37Z</time>
      </trkpt>
      <trkpt lat="36.936450" lon="-2.928288">
        <ele>1228.457</ele>
        <time>2022-05-07T10:13:23Z</time>
      </trkpt>
      <trkpt lat="36.935894" lon="-2.928345">
        <ele>1233.849</ele>
        <time>2022-05-07T10:14:04Z</time>
      </trkpt>
      <trkpt lat="36.935863" lon="-2.928168">
        <ele>1236.485</ele>
        <time>2022-05-07T10:14:18Z</time>
      </trkpt>
      <trkpt lat="36.936066" lon="-2.927892">
        <ele>1240.494</ele>
        <time>2022-05-07T10:14:46Z</time>
      </trkpt>
      <trkpt lat="36.935590" lon="-2.928006">
        <ele>1243.866</ele>
        <time>2022-05-07T10:15:19Z</time>
      </trkpt>
      <trkpt lat="36.935104" lon="-2.927727">
        <ele>1249.436</ele>
        <time>2022-05-07T10:15:58Z</time>
      </trkpt>
      <trkpt lat="36.935128" lon="-2.927531">
        <ele>1251.616</ele>
        <time>2022-05-07T10:16:12Z</time>
      </trkpt>
      <trkpt lat="36.935629" lon="-2.927415">
        <ele>1255.876</ele>
        <time>2022-05-07T10:16:49Z</time>
      </trkpt>
      <trkpt lat="36.935747" lon="-2.927236">
        <ele>1258.413</ele>
        <time>2022-05-07T10:17:07Z</time>
      </trkpt>
      <trkpt lat="36.935142" lon="-2.927050">
        <ele>1264.009</ele>
        <time>2022-05-07T10:17:52Z</time>
      </trkpt>
      <trkpt lat="36.934071" lon="-2.926221">
        <ele>1273.242</ele>
        <time>2022-05-07T10:19:28Z</time>
      </trkpt>
      <trkpt lat="36.933333" lon="-2.926516">
        <ele>1279.471</ele>
        <time>2022-05-07T10:20:25Z</time>
      </trkpt>
      <trkpt lat="36.932507" lon="-2.925703">
        <ele>1291.693</ele>
        <time>2022-05-07T10:21:57Z</time>
      </trkpt>
      <trkpt lat="36.931878" lon="-2.924422">
        <ele>1305.471</ele>
        <time>2022-05-07T10:24:43Z</time>
      </trkpt>
      <trkpt lat="36.931702" lon="-2.924405">
        <ele>1305.813</ele>
        <time>2022-05-07T10:24:53Z</time>
      </trkpt>
      <trkpt lat="36.931499" lon="-2.924737">
        <ele>1306.899</ele>
        <time>2022-05-07T10:25:09Z</time>
      </trkpt>
      <trkpt lat="36.931210" lon="-2.924847">
        <ele>1309.258</ele>
        <time>2022-05-07T10:25:25Z</time>
      </trkpt>
      <trkpt lat="36.931102" lon="-2.924734">
        <ele>1311.430</ele>
        <time>2022-05-07T10:25:37Z</time>
      </trkpt>
      <trkpt lat="36.931282" lon="-2.924393">
        <ele>1314.820</ele>
        <time>2022-05-07T10:26:02Z</time>
      </trkpt>
      <trkpt lat="36.930736" lon="-2.924377">
        <ele>1319.623</ele>
        <time>2022-05-07T10:26:42Z</time>
      </trkpt>
      <trkpt lat="36.930813" lon="-2.923377">
        <ele>1327.083</ele>
        <time>2022-05-07T10:27:33Z</time>
      </trkpt>
      <trkpt lat="36.930272" lon="-2.921862">
        <ele>1337.611</ele>
        <time>2022-05-07T10:29:04Z</time>
      </trkpt>
      <trkpt lat="36.929903" lon="-2.919759">
        <ele>1353.409</ele>
        <time>2022-05-07T10:31:17Z</time>
      </trkpt>
      <trkpt lat="36.929481" lon="-2.918760">
        <ele>1362.043</ele>
        <time>2022-05-07T10:32:34Z</time>
      </trkpt>
      <trkpt lat="36.929197" lon="-2.918576">
        <ele>1364.242</ele>
        <time>2022-05-07T10:32:51Z</time>
      </trkpt>
      <trkpt lat="36.928266" lon="-2.918607">
        <ele>1367.064</ele>
        <time>2022-05-07T10:33:43Z</time>
      </trkpt>
      <trkpt lat="36.927853" lon="-2.918441">
        <ele>1370.662</ele>
        <time>2022-05-07T10:34:13Z</time>
      </trkpt>
      <trkpt lat="36.927331" lon="-2.917335">
        <ele>1373.834</ele>
        <time>2022-05-07T10:34:59Z</time>
      </trkpt>
      <trkpt lat="36.926769" lon="-2.916721">
        <ele>1374.490</ele>
        <time>2022-05-07T10:37:05Z</time>
      </trkpt>
      <trkpt lat="36.926133" lon="-2.916474">
        <ele>1372.469</ele>
        <time>2022-05-07T10:37:20Z</time>
      </trkpt>
      <trkpt lat="36.925927" lon="-2.916017">
        <ele>1368.461</ele>
        <time>2022-05-07T10:37:27Z</time>
      </trkpt>
      <trkpt lat="36.925147" lon="-2.915190">
        <ele>1364.641</ele>
        <time>2022-05-07T10:37:42Z</time>
      </trkpt>
      <trkpt lat="36.924569" lon="-2.914994">
        <ele>1363.888</ele>
        <time>2022-05-07T10:37:52Z</time>
      </trkpt>
      <trkpt lat="36.924127" lon="-2.915107">
        <ele>1364.424</ele>
        <time>2022-05-07T10:38:01Z</time>
      </trkpt>
      <trkpt lat="36.923521" lon="-2.914973">
        <ele>1365.226</ele>
        <time>2022-05-07T10:38:15Z</time>
      </trkpt>
      <trkpt lat="36.922641" lon="-2.914157">
        <ele>1370.409</ele>
        <time>2022-05-07T10:38:47Z</time>
      </trkpt>
      <trkpt lat="36.922181" lon="-2.914063">
        <ele>1371.459</ele>
        <time>2022-05-07T10:39:01Z</time>
      </trkpt>
      <trkpt lat="36.921314" lon="-2.913451">
        <ele>1374.438</ele>
        <time>2022-05-07T10:39:31Z</time>
      </trkpt>
      <trkpt lat="36.921100" lon="-2.913165">
        <ele>1375.020</ele>
        <time>2022-05-07T10:39:39Z</time>
      </trkpt>
      <trkpt lat="36.921039" lon="-2.912188">
        <ele>1378.268</ele>
        <time>2022-05-07T10:40:03Z</time>
      </trkpt>
      <trkpt lat="36.920836" lon="-2.911657">
        <ele>1380.210</ele>
        <time>2022-05-07T10:40:20Z</time>
      </trkpt>
      <trkpt lat="36.919672" lon="-2.913500">
        <ele>1384.026</ele>
        <time>2022-05-07T10:41:19Z</time>
      </trkpt>
      <trkpt lat="36.919120" lon="-2.913684">
        <ele>1382.625</ele>
        <time>2022-05-07T10:41:31Z</time>
      </trkpt>
      <trkpt lat="36.918589" lon="-2.913603">
        <ele>1381.837</ele>
        <time>2022-05-07T10:41:42Z</time>
      </trkpt>
      <trkpt lat="36.918170" lon="-2.912999">
        <ele>1381.677</ele>
        <time>2022-05-07T10:42:00Z</time>
      </trkpt>
      <trkpt lat="36.917864" lon="-2.910495">
        <ele>1386.022</ele>
        <time>2022-05-07T10:42:48Z</time>
      </trkpt>
      <trkpt lat="36.917600" lon="-2.910064">
        <ele>1388.462</ele>
        <time>2022-05-07T10:43:04Z</time>
      </trkpt>
      <trkpt lat="36.916996" lon="-2.909670">
        <ele>1394.408</ele>
        <time>2022-05-07T10:43:43Z</time>
      </trkpt>
      <trkpt lat="36.916424" lon="-2.908426">
        <ele>1401.609</ele>
        <time>2022-05-07T10:44:40Z</time>
      </trkpt>
      <trkpt lat="36.915987" lon="-2.908518">
        <ele>1402.423</ele>
        <time>2022-05-07T10:44:57Z</time>
      </trkpt>
      <trkpt lat="36.915021" lon="-2.908296">
        <ele>1406.652</ele>
        <time>2022-05-07T10:45:30Z</time>
      </trkpt>
      <trkpt lat="36.914779" lon="-2.909575">
        <ele>1401.244</ele>
        <time>2022-05-07T10:45:49Z</time>
      </trkpt>
      <trkpt lat="36.914442" lon="-2.909794">
        <ele>1398.442</ele>
        <time>2022-05-07T10:45:55Z</time>
      </trkpt>
      <trkpt lat="36.913620" lon="-2.909427">
        <ele>1393.494</ele>
        <time>2022-05-07T10:46:06Z</time>
      </trkpt>
      <trkpt lat="36.913067" lon="-2.908792">
        <ele>1388.830</ele>
        <time>2022-05-07T10:46:17Z</time>
      </trkpt>
      <trkpt lat="36.912480" lon="-2.909071">
        <ele>1384.649</ele>
        <time>2022-05-07T10:46:26Z</time>
      </trkpt>
      <trkpt lat="36.912112" lon="-2.908838">
        <ele>1380.841</ele>
        <time>2022-05-07T10:46:31Z</time>
      </trkpt>
      <trkpt lat="36.910849" lon="-2.908522">
        <ele>1371.891</ele>
        <time>2022-05-07T10:46:46Z</time>
      </trkpt>
      <trkpt lat="36.910254" lon="-2.908771">
        <ele>1366.623</ele>
        <time>2022-05-07T10:46:54Z</time>
      </trkpt>
      <trkpt lat="36.909632" lon="-2.908805">
        <ele>1361.483</ele>
        <time>2022-05-07T10:47:03Z</time>
      </trkpt>
      <trkpt lat="36.908563" lon="-2.909474">
        <ele>1355.411</ele>
        <time>2022-05-07T10:47:18Z</time>
      </trkpt>
      <trkpt lat="36.908313" lon="-2.909375">
        <ele>1354.409</ele>
        <time>2022-05-07T10:47:22Z</time>
      </trkpt>
      <trkpt lat="36.907695" lon="-2.908732">
        <ele>1347.043</ele>
        <time>2022-05-07T10:47:36Z</time>
      </trkpt>
      <trkpt lat="36.906586" lon="-2.907979">
        <ele>1343.232</ele>
        <time>2022-05-07T10:47:55Z</time>
      </trkpt>
      <trkpt lat="36.905684" lon="-2.906968">
        <ele>1350.814</ele>
        <time>2022-05-07T10:48:34Z</time>
      </trkpt>
      <trkpt lat="36.906117" lon="-2.906758">
        <ele>1354.272</ele>
        <time>2022-05-07T10:49:04Z</time>
      </trkpt>
      <trkpt lat="36.905835" lon="-2.906085">
        <ele>1359.654</ele>
        <time>2022-05-07T10:49:34Z</time>
      </trkpt>
      <trkpt lat="36.906221" lon="-2.904479">
        <ele>1369.830</ele>
        <time>2022-05-07T10:50:49Z</time>
      </trkpt>
      <trkpt lat="36.906609" lon="-2.904068">
        <ele>1374.099</ele>
        <time>2022-05-07T10:51:18Z</time>
      </trkpt>
      <trkpt lat="36.907273" lon="-2.903771">
        <ele>1378.851</ele>
        <time>2022-05-07T10:51:57Z</time>
      </trkpt>
      <trkpt lat="36.910264" lon="-2.905023">
        <ele>1426.011</ele>
        <time>2022-05-07T11:00:11Z</time>
      </trkpt>
      <trkpt lat="36.911025" lon="-2.906113">
        <ele>1420.056</ele>
        <time>2022-05-07T11:00:40Z</time>
      </trkpt>
      <trkpt lat="36.911557" lon="-2.906475">
        <ele>1417.259</ele>
        <time>2022-05-07T11:00:50Z</time>
      </trkpt>
      <trkpt lat="36.911798" lon="-2.906842">
        <ele>1415.014</ele>
        <time>2022-05-07T11:00:56Z</time>
      </trkpt>
      <trkpt lat="36.913080" lon="-2.906975">
        <ele>1412.009</ele>
        <time>2022-05-07T11:01:21Z</time>
      </trkpt>
      <trkpt lat="36.914581" lon="-2.908303">
        <ele>1410.476</ele>
        <time>2022-05-07T11:02:00Z</time>
      </trkpt>
      <trkpt lat="36.915313" lon="-2.908259">
        <ele>1405.015</ele>
        <time>2022-05-07T11:02:13Z</time>
      </trkpt>
      <trkpt lat="36.916019" lon="-2.908490">
        <ele>1402.237</ele>
        <time>2022-05-07T11:02:24Z</time>
      </trkpt>
      <trkpt lat="36.916411" lon="-2.908371">
        <ele>1400.835</ele>
        <time>2022-05-07T11:02:31Z</time>
      </trkpt>
      <trkpt lat="36.917019" lon="-2.909649">
        <ele>1394.837</ele>
        <time>2022-05-07T11:02:49Z</time>
      </trkpt>
      <trkpt lat="36.917669" lon="-2.910139">
        <ele>1388.213</ele>
        <time>2022-05-07T11:03:00Z</time>
      </trkpt>
      <trkpt lat="36.917885" lon="-2.910501">
        <ele>1385.672</ele>
        <time>2022-05-07T11:03:05Z</time>
      </trkpt>
      <trkpt lat="36.918341" lon="-2.913547">
        <ele>1377.644</ele>
        <time>2022-05-07T11:03:45Z</time>
      </trkpt>
      <trkpt lat="36.918877" lon="-2.914198">
        <ele>1369.054</ele>
        <time>2022-05-07T11:04:10Z</time>
      </trkpt>
      <trkpt lat="36.919569" lon="-2.914213">
        <ele>1362.812</ele>
        <time>2022-05-07T11:04:30Z</time>
      </trkpt>
      <trkpt lat="36.919973" lon="-2.914028">
        <ele>1359.632</ele>
        <time>2022-05-07T11:04:41Z</time>
      </trkpt>
      <trkpt lat="36.920025" lon="-2.914124">
        <ele>1359.205</ele>
        <time>2022-05-07T11:04:45Z</time>
      </trkpt>
      <trkpt lat="36.918814" lon="-2.915531">
        <ele>1340.009</ele>
        <time>2022-05-07T11:05:25Z</time>
      </trkpt>
      <trkpt lat="36.918423" lon="-2.916586">
        <ele>1339.072</ele>
        <time>2022-05-07T11:05:45Z</time>
      </trkpt>
      <trkpt lat="36.919136" lon="-2.919226">
        <ele>1321.091</ele>
        <time>2022-05-07T11:06:37Z</time>
      </trkpt>
      <trkpt lat="36.919699" lon="-2.919815">
        <ele>1316.853</ele>
        <time>2022-05-07T11:07:02Z</time>
      </trkpt>
      <trkpt lat="36.919490" lon="-2.920050">
        <ele>1311.691</ele>
        <time>2022-05-07T11:07:13Z</time>
      </trkpt>
      <trkpt lat="36.919676" lon="-2.920788">
        <ele>1300.293</ele>
        <time>2022-05-07T11:07:40Z</time>
      </trkpt>
      <trkpt lat="36.919615" lon="-2.921961">
        <ele>1280.879</ele>
        <time>2022-05-07T11:08:01Z</time>
      </trkpt>
      <trkpt lat="36.919273" lon="-2.924166">
        <ele>1238.698</ele>
        <time>2022-05-07T11:08:57Z</time>
      </trkpt>
      <trkpt lat="36.918926" lon="-2.925012">
        <ele>1228.620</ele>
        <time>2022-05-07T11:09:09Z</time>
      </trkpt>
      <trkpt lat="36.918851" lon="-2.925841">
        <ele>1225.680</ele>
        <time>2022-05-07T11:09:18Z</time>
      </trkpt>
      <trkpt lat="36.919529" lon="-2.927653">
        <ele>1210.471</ele>
        <time>2022-05-07T11:09:55Z</time>
      </trkpt>
      <trkpt lat="36.920065" lon="-2.930985">
        <ele>1147.241</ele>
        <time>2022-05-07T11:13:53Z</time>
      </trkpt>
      <trkpt lat="36.920272" lon="-2.933549">
        <ele>1109.615</ele>
        <time>2022-05-07T11:15:35Z</time>
      </trkpt>
      <trkpt lat="36.920079" lon="-2.936535">
        <ele>1053.409</ele>
        <time>2022-05-07T11:19:21Z</time>
      </trkpt>
      <trkpt lat="36.920394" lon="-2.937677">
        <ele>1027.248</ele>
        <time>2022-05-07T11:20:43Z</time>
      </trkpt>
      <trkpt lat="36.920280" lon="-2.938494">
        <ele>1005.267</ele>
        <time>2022-05-07T11:22:14Z</time>
      </trkpt>
      <trkpt lat="36.920453" lon="-2.939312">
        <ele>983.249</ele>
        <time>2022-05-07T11:23:03Z</time>
      </trkpt>
      <trkpt lat="36.920342" lon="-2.939777">
        <ele>975.467</ele>
        <time>2022-05-07T11:23:40Z</time>
      </trkpt>
      <trkpt lat="36.918912" lon="-2.940143">
        <ele>970.069</ele>
        <time>2022-05-07T11:31:55Z</time>
      </trkpt>
      <trkpt lat="36.918479" lon="-2.940072">
        <ele>969.065</ele>
        <time>2022-05-07T11:32:02Z</time>
      </trkpt>
      <trkpt lat="36.918042" lon="-2.939646">
        <ele>967.654</ele>
        <time>2022-05-07T11:32:11Z</time>
      </trkpt>
      <trkpt lat="36.917404" lon="-2.939913">
        <ele>966.086</ele>
        <time>2022-05-07T11:32:22Z</time>
      </trkpt>
      <trkpt lat="36.916969" lon="-2.938851">
        <ele>961.876</ele>
        <time>2022-05-07T11:32:37Z</time>
      </trkpt>
      <trkpt lat="36.916670" lon="-2.936488">
        <ele>954.039</ele>
        <time>2022-05-07T11:33:07Z</time>
      </trkpt>
      <trkpt lat="36.916524" lon="-2.936513">
        <ele>953.201</ele>
        <time>2022-05-07T11:33:10Z</time>
      </trkpt>
      <trkpt lat="36.916169" lon="-2.937660">
        <ele>956.421</ele>
        <time>2022-05-07T11:33:32Z</time>
      </trkpt>
      <trkpt lat="36.915408" lon="-2.938479">
        <ele>958.209</ele>
        <time>2022-05-07T11:33:55Z</time>
      </trkpt>
      <trkpt lat="36.915184" lon="-2.938196">
        <ele>959.874</ele>
        <time>2022-05-07T11:34:04Z</time>
      </trkpt>
      <trkpt lat="36.915038" lon="-2.936782">
        <ele>962.463</ele>
        <time>2022-05-07T11:34:38Z</time>
      </trkpt>
      <trkpt lat="36.914468" lon="-2.937163">
        <ele>964.055</ele>
        <time>2022-05-07T11:34:57Z</time>
      </trkpt>
      <trkpt lat="36.914044" lon="-2.937157">
        <ele>965.423</ele>
        <time>2022-05-07T11:35:09Z</time>
      </trkpt>
      <trkpt lat="36.913880" lon="-2.937933">
        <ele>966.865</ele>
        <time>2022-05-07T11:35:26Z</time>
      </trkpt>
      <trkpt lat="36.913367" lon="-2.938068">
        <ele>967.661</ele>
        <time>2022-05-07T11:35:39Z</time>
      </trkpt>
      <trkpt lat="36.912506" lon="-2.937688">
        <ele>970.260</ele>
        <time>2022-05-07T11:36:01Z</time>
      </trkpt>
      <trkpt lat="36.911425" lon="-2.936582">
        <ele>974.892</ele>
        <time>2022-05-07T11:36:36Z</time>
      </trkpt>
      <trkpt lat="36.910621" lon="-2.936264">
        <ele>977.672</ele>
        <time>2022-05-07T11:36:58Z</time>
      </trkpt>
      <trkpt lat="36.910325" lon="-2.935505">
        <ele>979.895</ele>
        <time>2022-05-07T11:37:17Z</time>
      </trkpt>
      <trkpt lat="36.910509" lon="-2.934122">
        <ele>981.049</ele>
        <time>2022-05-07T11:37:46Z</time>
      </trkpt>
      <trkpt lat="36.910295" lon="-2.932888">
        <ele>981.623</ele>
        <time>2022-05-07T11:38:10Z</time>
      </trkpt>
      <trkpt lat="36.910503" lon="-2.932537">
        <ele>982.609</ele>
        <time>2022-05-07T11:38:18Z</time>
      </trkpt>
      <trkpt lat="36.911380" lon="-2.932000">
        <ele>986.820</ele>
        <time>2022-05-07T11:38:52Z</time>
      </trkpt>
      <trkpt lat="36.910970" lon="-2.931416">
        <ele>987.299</ele>
        <time>2022-05-07T11:39:08Z</time>
      </trkpt>
      <trkpt lat="36.910124" lon="-2.930678">
        <ele>986.841</ele>
        <time>2022-05-07T11:39:31Z</time>
      </trkpt>
      <trkpt lat="36.910181" lon="-2.929787">
        <ele>986.879</ele>
        <time>2022-05-07T11:39:47Z</time>
      </trkpt>
      <trkpt lat="36.909908" lon="-2.928859">
        <ele>986.651</ele>
        <time>2022-05-07T11:40:04Z</time>
      </trkpt>
      <trkpt lat="36.909006" lon="-2.929707">
        <ele>975.277</ele>
        <time>2022-05-07T11:40:20Z</time>
      </trkpt>
      <trkpt lat="36.908462" lon="-2.930458">
        <ele>965.696</ele>
        <time>2022-05-07T11:40:33Z</time>
      </trkpt>
      <trkpt lat="36.907506" lon="-2.929834">
        <ele>955.288</ele>
        <time>2022-05-07T11:40:54Z</time>
      </trkpt>
      <trkpt lat="36.906808" lon="-2.930757">
        <ele>947.828</ele>
        <time>2022-05-07T11:41:10Z</time>
      </trkpt>
      <trkpt lat="36.905995" lon="-2.931358">
        <ele>937.848</ele>
        <time>2022-05-07T11:41:27Z</time>
      </trkpt>
      <trkpt lat="36.905157" lon="-2.931135">
        <ele>934.261</ele>
        <time>2022-05-07T11:41:42Z</time>
      </trkpt>
      <trkpt lat="36.904251" lon="-2.930458">
        <ele>932.417</ele>
        <time>2022-05-07T11:42:02Z</time>
      </trkpt>
      <trkpt lat="36.904379" lon="-2.929634">
        <ele>929.609</ele>
        <time>2022-05-07T11:42:15Z</time>
      </trkpt>
      <trkpt lat="36.904888" lon="-2.929256">
        <ele>926.625</ele>
        <time>2022-05-07T11:42:26Z</time>
      </trkpt>
      <trkpt lat="36.904866" lon="-2.929137">
        <ele>926.294</ele>
        <time>2022-05-07T11:42:29Z</time>
      </trkpt>
      <trkpt lat="36.904413" lon="-2.928999">
        <ele>924.816</ele>
        <time>2022-05-07T11:42:39Z</time>
      </trkpt>
      <trkpt lat="36.903571" lon="-2.929248">
        <ele>922.254</ele>
        <time>2022-05-07T11:42:54Z</time>
      </trkpt>
      <trkpt lat="36.903411" lon="-2.929184">
        <ele>920.686</ele>
        <time>2022-05-07T11:42:58Z</time>
      </trkpt>
      <trkpt lat="36.903531" lon="-2.927970">
        <ele>915.422</ele>
        <time>2022-05-07T11:43:17Z</time>
      </trkpt>
      <trkpt lat="36.903911" lon="-2.926932">
        <ele>910.691</ele>
        <time>2022-05-07T11:43:35Z</time>
      </trkpt>
      <trkpt lat="36.903492" lon="-2.927006">
        <ele>912.413</ele>
        <time>2022-05-07T11:43:48Z</time>
      </trkpt>
      <trkpt lat="36.902346" lon="-2.927940">
        <ele>913.413</ele>
        <time>2022-05-07T11:44:16Z</time>
      </trkpt>
      <trkpt lat="36.901369" lon="-2.928446">
        <ele>912.458</ele>
        <time>2022-05-07T11:44:36Z</time>
      </trkpt>
      <trkpt lat="36.900997" lon="-2.928407">
        <ele>910.852</ele>
        <time>2022-05-07T11:44:43Z</time>
      </trkpt>
      <trkpt lat="36.900615" lon="-2.927963">
        <ele>909.217</ele>
        <time>2022-05-07T11:44:53Z</time>
      </trkpt>
      <trkpt lat="36.900178" lon="-2.928291">
        <ele>907.209</ele>
        <time>2022-05-07T11:45:02Z</time>
      </trkpt>
      <trkpt lat="36.899669" lon="-2.928228">
        <ele>905.096</ele>
        <time>2022-05-07T11:45:11Z</time>
      </trkpt>
      <trkpt lat="36.898997" lon="-2.928904">
        <ele>900.665</ele>
        <time>2022-05-07T11:45:25Z</time>
      </trkpt>
      <trkpt lat="36.898465" lon="-2.928935">
        <ele>896.667</ele>
        <time>2022-05-07T11:45:32Z</time>
      </trkpt>
      <trkpt lat="36.898015" lon="-2.928782">
        <ele>895.415</ele>
        <time>2022-05-07T11:45:39Z</time>
      </trkpt>
      <trkpt lat="36.897535" lon="-2.928894">
        <ele>894.627</ele>
        <time>2022-05-07T11:45:48Z</time>
      </trkpt>
      <trkpt lat="36.896584" lon="-2.928447">
        <ele>893.233</ele>
        <time>2022-05-07T11:46:07Z</time>
      </trkpt>
      <trkpt lat="36.896150" lon="-2.928413">
        <ele>890.282</ele>
        <time>2022-05-07T11:46:15Z</time>
      </trkpt>
      <trkpt lat="36.895502" lon="-2.926727">
        <ele>886.884</ele>
        <time>2022-05-07T11:46:46Z</time>
      </trkpt>
      <trkpt lat="36.894600" lon="-2.926588">
        <ele>883.634</ele>
        <time>2022-05-07T11:50:58Z</time>
      </trkpt>
      <trkpt lat="36.894604" lon="-2.925949">
        <ele>880.415</ele>
        <time>2022-05-07T11:51:09Z</time>
      </trkpt>
      <trkpt lat="36.894885" lon="-2.925155">
        <ele>877.865</ele>
        <time>2022-05-07T11:51:21Z</time>
      </trkpt>
      <trkpt lat="36.893987" lon="-2.925304">
        <ele>870.811</ele>
        <time>2022-05-07T11:51:33Z</time>
      </trkpt>
      <trkpt lat="36.893536" lon="-2.925231">
        <ele>866.409</ele>
        <time>2022-05-07T11:51:38Z</time>
      </trkpt>
      <trkpt lat="36.892456" lon="-2.924214">
        <ele>854.612</ele>
        <time>2022-05-07T11:51:56Z</time>
      </trkpt>
      <trkpt lat="36.892130" lon="-2.924363">
        <ele>851.481</ele>
        <time>2022-05-07T11:52:01Z</time>
      </trkpt>
      <trkpt lat="36.891688" lon="-2.925168">
        <ele>842.693</ele>
        <time>2022-05-07T11:52:10Z</time>
      </trkpt>
      <trkpt lat="36.891444" lon="-2.925259">
        <ele>839.681</ele>
        <time>2022-05-07T11:52:14Z</time>
      </trkpt>
      <trkpt lat="36.890618" lon="-2.924614">
        <ele>828.213</ele>
        <time>2022-05-07T11:52:26Z</time>
      </trkpt>
      <trkpt lat="36.890529" lon="-2.924075">
        <ele>824.079</ele>
        <time>2022-05-07T11:52:33Z</time>
      </trkpt>
      <trkpt lat="36.889420" lon="-2.923890">
        <ele>810.618</ele>
        <time>2022-05-07T11:52:49Z</time>
      </trkpt>
      <trkpt lat="36.889000" lon="-2.923509">
        <ele>804.090</ele>
        <time>2022-05-07T11:52:57Z</time>
      </trkpt>
      <trkpt lat="36.888867" lon="-2.922800">
        <ele>797.880</ele>
        <time>2022-05-07T11:53:06Z</time>
      </trkpt>
      <trkpt lat="36.888338" lon="-2.922071">
        <ele>788.662</ele>
        <time>2022-05-07T11:53:17Z</time>
      </trkpt>
      <trkpt lat="36.888616" lon="-2.920877">
        <ele>788.483</ele>
        <time>2022-05-07T11:53:36Z</time>
      </trkpt>
      <trkpt lat="36.888530" lon="-2.920214">
        <ele>788.211</ele>
        <time>2022-05-07T11:53:47Z</time>
      </trkpt>
      <trkpt lat="36.887745" lon="-2.918617">
        <ele>781.409</ele>
        <time>2022-05-07T11:54:09Z</time>
      </trkpt>
      <trkpt lat="36.887597" lon="-2.918758">
        <ele>781.477</ele>
        <time>2022-05-07T11:54:13Z</time>
      </trkpt>
      <trkpt lat="36.887677" lon="-2.920030">
        <ele>781.436</ele>
        <time>2022-05-07T11:54:31Z</time>
      </trkpt>
      <trkpt lat="36.887297" lon="-2.920227">
        <ele>780.028</ele>
        <time>2022-05-07T11:54:38Z</time>
      </trkpt>
      <trkpt lat="36.886694" lon="-2.919909">
        <ele>778.046</ele>
        <time>2022-05-07T11:54:48Z</time>
      </trkpt>
      <trkpt lat="36.886378" lon="-2.920319">
        <ele>774.888</ele>
        <time>2022-05-07T11:54:54Z</time>
      </trkpt>
      <trkpt lat="36.886457" lon="-2.920933">
        <ele>772.064</ele>
        <time>2022-05-07T11:55:00Z</time>
      </trkpt>
      <trkpt lat="36.886825" lon="-2.921730">
        <ele>767.233</ele>
        <time>2022-05-07T11:55:09Z</time>
      </trkpt>
      <trkpt lat="36.886694" lon="-2.922538">
        <ele>762.295</ele>
        <time>2022-05-07T11:55:19Z</time>
      </trkpt>
      <trkpt lat="36.885486" lon="-2.922445">
        <ele>750.625</ele>
        <time>2022-05-07T11:55:36Z</time>
      </trkpt>
      <trkpt lat="36.884956" lon="-2.921951">
        <ele>744.882</ele>
        <time>2022-05-07T11:55:44Z</time>
      </trkpt>
      <trkpt lat="36.884323" lon="-2.921795">
        <ele>739.643</ele>
        <time>2022-05-07T11:55:52Z</time>
      </trkpt>
      <trkpt lat="36.883321" lon="-2.920931">
        <ele>738.217</ele>
        <time>2022-05-07T11:56:09Z</time>
      </trkpt>
      <trkpt lat="36.882884" lon="-2.919724">
        <ele>735.009</ele>
        <time>2022-05-07T11:56:24Z</time>
      </trkpt>
      <trkpt lat="36.882708" lon="-2.919649">
        <ele>733.689</ele>
        <time>2022-05-07T11:56:26Z</time>
      </trkpt>
      <trkpt lat="36.882223" lon="-2.919789">
        <ele>729.288</ele>
        <time>2022-05-07T11:56:32Z</time>
      </trkpt>
      <trkpt lat="36.881480" lon="-2.919432">
        <ele>722.640</ele>
        <time>2022-05-07T11:56:42Z</time>
      </trkpt>
      <trkpt lat="36.881472" lon="-2.919604">
        <ele>720.238</ele>
        <time>2022-05-07T11:56:46Z</time>
      </trkpt>
      <trkpt lat="36.881780" lon="-2.919789">
        <ele>718.090</ele>
        <time>2022-05-07T11:56:51Z</time>
      </trkpt>
      <trkpt lat="36.882248" lon="-2.920363">
        <ele>712.636</ele>
        <time>2022-05-07T11:56:59Z</time>
      </trkpt>
      <trkpt lat="36.882260" lon="-2.920552">
        <ele>711.225</ele>
        <time>2022-05-07T11:57:03Z</time>
      </trkpt>
      <trkpt lat="36.881074" lon="-2.920001">
        <ele>699.437</ele>
        <time>2022-05-07T11:57:18Z</time>
      </trkpt>
      <trkpt lat="36.880556" lon="-2.919975">
        <ele>695.087</ele>
        <time>2022-05-07T11:57:23Z</time>
      </trkpt>
      <trkpt lat="36.880449" lon="-2.920136">
        <ele>693.287</ele>
        <time>2022-05-07T11:57:26Z</time>
      </trkpt>
      <trkpt lat="36.881008" lon="-2.920600">
        <ele>687.442</ele>
        <time>2022-05-07T11:57:35Z</time>
      </trkpt>
      <trkpt lat="36.881293" lon="-2.921442">
        <ele>682.026</ele>
        <time>2022-05-07T11:57:43Z</time>
      </trkpt>
      <trkpt lat="36.881755" lon="-2.922202">
        <ele>675.609</ele>
        <time>2022-05-07T11:57:51Z</time>
      </trkpt>
      <trkpt lat="36.881675" lon="-2.922349">
        <ele>676.219</ele>
        <time>2022-05-07T11:57:55Z</time>
      </trkpt>
      <trkpt lat="36.879439" lon="-2.921622">
        <ele>662.238</ele>
        <time>2022-05-07T11:58:33Z</time>
      </trkpt>
      <trkpt lat="36.878697" lon="-2.921216">
        <ele>658.660</ele>
        <time>2022-05-07T11:58:52Z</time>
      </trkpt>
      <trkpt lat="36.877911" lon="-2.920507">
        <ele>653.238</ele>
        <time>2022-05-07T11:59:10Z</time>
      </trkpt>
      <trkpt lat="36.877183" lon="-2.920528">
        <ele>649.660</ele>
        <time>2022-05-07T11:59:23Z</time>
      </trkpt>
      <trkpt lat="36.877018" lon="-2.920720">
        <ele>646.666</ele>
        <time>2022-05-07T12:00:04Z</time>
      </trkpt>
      <trkpt lat="36.877096" lon="-2.920533">
        <ele>648.255</ele>
        <time>2022-05-07T12:00:18Z</time>
      </trkpt>
      <trkpt lat="36.876949" lon="-2.920825">
        <ele>645.497</ele>
        <time>2022-05-07T12:00:49Z</time>
      </trkpt>
      <trkpt lat="36.876792" lon="-2.920700">
        <ele>647.047</ele>
        <time>2022-05-07T12:01:13Z</time>
      </trkpt>
      <trkpt lat="36.876164" lon="-2.921114">
        <ele>641.279</ele>
        <time>2022-05-07T12:01:29Z</time>
      </trkpt>
      <trkpt lat="36.874803" lon="-2.921200">
        <ele>634.205</ele>
        <time>2022-05-07T12:02:21Z</time>
      </trkpt>
      <trkpt lat="36.873933" lon="-2.922328">
        <ele>622.425</ele>
        <time>2022-05-07T12:02:51Z</time>
      </trkpt>
      <trkpt lat="36.873743" lon="-2.923574">
        <ele>615.609</ele>
        <time>2022-05-07T12:03:07Z</time>
      </trkpt>
      <trkpt lat="36.873359" lon="-2.923427">
        <ele>617.848</ele>
        <time>2022-05-07T12:03:28Z</time>
      </trkpt>
      <trkpt lat="36.872977" lon="-2.923925">
        <ele>620.827</ele>
        <time>2022-05-07T12:03:53Z</time>
      </trkpt>
      <trkpt lat="36.872592" lon="-2.925143">
        <ele>630.069</ele>
        <time>2022-05-07T12:04:54Z</time>
      </trkpt>
      <trkpt lat="36.871961" lon="-2.926086">
        <ele>639.097</ele>
        <time>2022-05-07T12:06:02Z</time>
      </trkpt>
      <trkpt lat="36.871556" lon="-2.925192">
        <ele>627.429</ele>
        <time>2022-05-07T12:06:36Z</time>
      </trkpt>
      <trkpt lat="36.870163" lon="-2.925043">
        <ele>613.045</ele>
        <time>2022-05-07T12:07:06Z</time>
      </trkpt>
      <trkpt lat="36.868183" lon="-2.926104">
        <ele>591.044</ele>
        <time>2022-05-07T12:08:03Z</time>
      </trkpt>
      <trkpt lat="36.866260" lon="-2.925559">
        <ele>560.476</ele>
        <time>2022-05-07T12:09:00Z</time>
      </trkpt>
      <trkpt lat="36.865608" lon="-2.926016">
        <ele>544.056</ele>
        <time>2022-05-07T12:09:35Z</time>
      </trkpt>
      <trkpt lat="36.865137" lon="-2.925847">
        <ele>534.439</ele>
        <time>2022-05-07T12:10:46Z</time>
      </trkpt>
      <trkpt lat="36.864585" lon="-2.925973">
        <ele>527.001</ele>
        <time>2022-05-07T12:13:09Z</time>
      </trkpt>
      <trkpt lat="36.864590" lon="-2.926184">
        <ele>526.021</ele>
        <time>2022-05-07T12:13:16Z</time>
      </trkpt>
      <trkpt lat="36.864909" lon="-2.926369">
        <ele>523.409</ele>
        <time>2022-05-07T12:13:26Z</time>
      </trkpt>
      <trkpt lat="36.864929" lon="-2.926822">
        <ele>519.894</ele>
        <time>2022-05-07T12:13:37Z</time>
      </trkpt>
      <trkpt lat="36.864516" lon="-2.926953">
        <ele>519.823</ele>
        <time>2022-05-07T12:13:52Z</time>
      </trkpt>
      <trkpt lat="36.863428" lon="-2.927894">
        <ele>525.245</ele>
        <time>2022-05-07T12:14:34Z</time>
      </trkpt>
      <trkpt lat="36.863462" lon="-2.928089">
        <ele>526.433</ele>
        <time>2022-05-07T12:14:40Z</time>
      </trkpt>
      <trkpt lat="36.864110" lon="-2.928287">
        <ele>526.235</ele>
        <time>2022-05-07T12:15:04Z</time>
      </trkpt>
      <trkpt lat="36.863665" lon="-2.929143">
        <ele>522.431</ele>
        <time>2022-05-07T12:15:19Z</time>
      </trkpt>
      <trkpt lat="36.863722" lon="-2.930136">
        <ele>518.040</ele>
        <time>2022-05-07T12:15:32Z</time>
      </trkpt>
      <trkpt lat="36.864027" lon="-2.930616">
        <ele>516.622</ele>
        <time>2022-05-07T12:15:43Z</time>
      </trkpt>
      <trkpt lat="36.864109" lon="-2.931131">
        <ele>519.842</ele>
        <time>2022-05-07T12:16:01Z</time>
      </trkpt>
      <trkpt lat="36.863603" lon="-2.931397">
        <ele>525.271</ele>
        <time>2022-05-07T12:16:30Z</time>
      </trkpt>
      <trkpt lat="36.863575" lon="-2.931681">
        <ele>526.041</ele>
        <time>2022-05-07T12:16:42Z</time>
      </trkpt>
      <trkpt lat="36.862776" lon="-2.931715">
        <ele>528.215</ele>
        <time>2022-05-07T12:17:18Z</time>
      </trkpt>
      <trkpt lat="36.861765" lon="-2.931485">
        <ele>542.609</ele>
        <time>2022-05-07T12:18:42Z</time>
      </trkpt>
      <trkpt lat="36.861717" lon="-2.930594">
        <ele>538.278</ele>
        <time>2022-05-07T12:19:53Z</time>
      </trkpt>
      <trkpt lat="36.861140" lon="-2.930289">
        <ele>523.257</ele>
        <time>2022-05-07T12:20:24Z</time>
      </trkpt>
      <trkpt lat="36.859620" lon="-2.930569">
        <ele>494.219</ele>
        <time>2022-05-07T12:22:30Z</time>
      </trkpt>
      <trkpt lat="36.859217" lon="-2.930923">
        <ele>492.497</ele>
        <time>2022-05-07T12:22:43Z</time>
      </trkpt>
      <trkpt lat="36.858849" lon="-2.931546">
        <ele>485.039</ele>
        <time>2022-05-07T12:22:57Z</time>
      </trkpt>
      <trkpt lat="36.857923" lon="-2.930905">
        <ele>458.475</ele>
        <time>2022-05-07T12:24:10Z</time>
      </trkpt>
      <trkpt lat="36.857636" lon="-2.930898">
        <ele>457.034</ele>
        <time>2022-05-07T12:24:15Z</time>
      </trkpt>
      <trkpt lat="36.856924" lon="-2.931566">
        <ele>452.876</ele>
        <time>2022-05-07T12:24:30Z</time>
      </trkpt>
      <trkpt lat="36.855983" lon="-2.931983">
        <ele>446.816</ele>
        <time>2022-05-07T12:24:43Z</time>
      </trkpt>
      <trkpt lat="36.855560" lon="-2.932558">
        <ele>442.292</ele>
        <time>2022-05-07T12:24:54Z</time>
      </trkpt>
      <trkpt lat="36.855181" lon="-2.932499">
        <ele>433.673</ele>
        <time>2022-05-07T12:25:09Z</time>
      </trkpt>
      <trkpt lat="36.854684" lon="-2.932984">
        <ele>431.020</ele>
        <time>2022-05-07T12:25:24Z</time>
      </trkpt>
      <trkpt lat="36.854580" lon="-2.932030">
        <ele>424.609</ele>
        <time>2022-05-07T12:25:42Z</time>
      </trkpt>
      <trkpt lat="36.855003" lon="-2.931576">
        <ele>418.630</ele>
        <time>2022-05-07T12:25:55Z</time>
      </trkpt>
      <trkpt lat="36.854877" lon="-2.931110">
        <ele>416.869</ele>
        <time>2022-05-07T12:26:03Z</time>
      </trkpt>
      <trkpt lat="36.855000" lon="-2.930585">
        <ele>413.851</ele>
        <time>2022-05-07T12:26:11Z</time>
      </trkpt>
      <trkpt lat="36.854762" lon="-2.930041">
        <ele>411.819</ele>
        <time>2022-05-07T12:26:19Z</time>
      </trkpt>
      <trkpt lat="36.854325" lon="-2.929591">
        <ele>408.061</ele>
        <time>2022-05-07T12:26:29Z</time>
      </trkpt>
      <trkpt lat="36.853825" lon="-2.929699">
        <ele>406.437</ele>
        <time>2022-05-07T12:26:38Z</time>
      </trkpt>
      <trkpt lat="36.853416" lon="-2.929993">
        <ele>404.086</ele>
        <time>2022-05-07T12:26:45Z</time>
      </trkpt>
      <trkpt lat="36.852805" lon="-2.930894">
        <ele>400.638</ele>
        <time>2022-05-07T12:27:01Z</time>
      </trkpt>
      <trkpt lat="36.852672" lon="-2.930714">
        <ele>397.458</ele>
        <time>2022-05-07T12:27:08Z</time>
      </trkpt>
      <trkpt lat="36.853164" lon="-2.929799">
        <ele>396.484</ele>
        <time>2022-05-07T12:27:30Z</time>
      </trkpt>
      <trkpt lat="36.851714" lon="-2.930907">
        <ele>389.607</ele>
        <time>2022-05-07T12:27:57Z</time>
      </trkpt>
      <trkpt lat="36.850916" lon="-2.930860">
        <ele>387.017</ele>
        <time>2022-05-07T12:28:10Z</time>
      </trkpt>
      <trkpt lat="36.849920" lon="-2.931298">
        <ele>383.009</ele>
        <time>2022-05-07T12:28:25Z</time>
      </trkpt>
      <trkpt lat="36.848993" lon="-2.931198">
        <ele>378.889</ele>
        <time>2022-05-07T12:28:38Z</time>
      </trkpt>
      <trkpt lat="36.848723" lon="-2.931511">
        <ele>376.638</ele>
        <time>2022-05-07T12:28:43Z</time>
      </trkpt>
      <trkpt lat="36.848636" lon="-2.932574">
        <ele>373.410</ele>
        <time>2022-05-07T12:28:54Z</time>
      </trkpt>
      <trkpt lat="36.847803" lon="-2.933349">
        <ele>369.248</ele>
        <time>2022-05-07T12:29:07Z</time>
      </trkpt>
      <trkpt lat="36.846623" lon="-2.934835">
        <ele>362.270</ele>
        <time>2022-05-07T12:29:29Z</time>
      </trkpt>
      <trkpt lat="36.846253" lon="-2.936371">
        <ele>356.256</ele>
        <time>2022-05-07T12:29:46Z</time>
      </trkpt>
      <trkpt lat="36.846062" lon="-2.936513">
        <ele>355.215</ele>
        <time>2022-05-07T12:29:49Z</time>
      </trkpt>
      <trkpt lat="36.845395" lon="-2.936499">
        <ele>353.087</ele>
        <time>2022-05-07T12:29:58Z</time>
      </trkpt>
      <trkpt lat="36.845036" lon="-2.936725">
        <ele>350.447</ele>
        <time>2022-05-07T12:30:03Z</time>
      </trkpt>
      <trkpt lat="36.843866" lon="-2.938819">
        <ele>343.234</ele>
        <time>2022-05-07T12:30:31Z</time>
      </trkpt>
      <trkpt lat="36.843366" lon="-2.939162">
        <ele>341.055</ele>
        <time>2022-05-07T12:30:42Z</time>
      </trkpt>
      <trkpt lat="36.841959" lon="-2.938983">
        <ele>334.610</ele>
        <time>2022-05-07T12:31:06Z</time>
      </trkpt>
      <trkpt lat="36.839301" lon="-2.940147">
        <ele>323.609</ele>
        <time>2022-05-07T12:31:55Z</time>
      </trkpt>
      <trkpt lat="36.838968" lon="-2.941475">
        <ele>319.854</ele>
        <time>2022-05-07T12:32:16Z</time>
      </trkpt>
      <trkpt lat="36.840304" lon="-2.943644">
        <ele>315.663</ele>
        <time>2022-05-07T12:33:50Z</time>
      </trkpt>
    </trkseg>
  </trk>
</gpx>
